<?xml version="1.0" encoding="UTF-8" standalone="no" ?>
<gpx xmlns="http://www.topografix.com/GPX/1/1" xmlns:xsi="http://www.w3.org/2001/XMLSchema-instance" xsi:schemaLocation="http://www.topografix.com/GPX/1/1 http://www.topografix.com/GPX/1/1/gpx.xsd" version="1.1" creator="VisuGPX - https://www.visugpx.com">
  <metadata>
    <name>VTT Bleu Petites Pyrénées</name>
  </metadata>
  <wpt lat="42.97793" lon="0.88648">
    <ele>825.5</ele>
    <name><![CDATA[]]></name>
    <desc><![CDATA[]]></desc>
  </wpt>
  <wpt lat="42.9753" lon="0.88906">
    <ele>902.7</ele>
    <name><![CDATA[]]></name>
    <desc><![CDATA[]]></desc>
  </wpt>
  <wpt lat="42.9644" lon="0.87865">
    <ele>1199.1</ele>
    <name><![CDATA[]]></name>
    <desc><![CDATA[]]></desc>
  </wpt>
  <wpt lat="42.96928" lon="0.88607">
    <ele>1105.9</ele>
    <name><![CDATA[Décollage parapentes]]></name>
    <desc><![CDATA[name=Décollage parapentes]]></desc>
  </wpt>
  <trk>
    <name><![CDATA[Bleue st martory]]></name>
    <desc><![CDATA[name=Bleue st martory
time=2020-11-05T15:20:31.000Z]]></desc>
    <trkseg>
      <trkpt lat="43.15982" lon="0.93319">
        <ele>341</ele>
        <time>2020-11-05T15:20:31.000Z</time>
      </trkpt>
      <trkpt lat="43.1599" lon="0.93313">
        <ele>339</ele>
        <time>2020-11-05T15:20:56.000Z</time>
      </trkpt>
      <trkpt lat="43.16003" lon="0.93331">
        <ele>337</ele>
        <time>2020-11-05T15:21:01.000Z</time>
      </trkpt>
      <trkpt lat="43.16016" lon="0.93347">
        <ele>338</ele>
        <time>2020-11-05T15:21:04.000Z</time>
      </trkpt>
      <trkpt lat="43.16033" lon="0.93366">
        <ele>339</ele>
        <time>2020-11-05T15:21:09.000Z</time>
      </trkpt>
      <trkpt lat="43.16041" lon="0.93376">
        <ele>339</ele>
        <time>2020-11-05T15:21:12.000Z</time>
      </trkpt>
      <trkpt lat="43.16047" lon="0.93385">
        <ele>340</ele>
        <time>2020-11-05T15:21:14.000Z</time>
      </trkpt>
      <trkpt lat="43.16059" lon="0.93395">
        <ele>339</ele>
        <time>2020-11-05T15:21:18.000Z</time>
      </trkpt>
      <trkpt lat="43.16079" lon="0.93417">
        <ele>337</ele>
        <time>2020-11-05T15:21:22.000Z</time>
      </trkpt>
      <trkpt lat="43.16099" lon="0.93424">
        <ele>337</ele>
        <time>2020-11-05T15:21:25.000Z</time>
      </trkpt>
      <trkpt lat="43.16115" lon="0.93415">
        <ele>336</ele>
        <time>2020-11-05T15:21:28.000Z</time>
      </trkpt>
      <trkpt lat="43.16129" lon="0.93399">
        <ele>334</ele>
        <time>2020-11-05T15:21:31.000Z</time>
      </trkpt>
      <trkpt lat="43.16138" lon="0.93388">
        <ele>333</ele>
        <time>2020-11-05T15:21:33.000Z</time>
      </trkpt>
      <trkpt lat="43.16153" lon="0.93373">
        <ele>334</ele>
        <time>2020-11-05T15:21:36.000Z</time>
      </trkpt>
      <trkpt lat="43.16158" lon="0.93358">
        <ele>335</ele>
        <time>2020-11-05T15:21:38.000Z</time>
      </trkpt>
      <trkpt lat="43.16157" lon="0.93341">
        <ele>335</ele>
        <time>2020-11-05T15:21:40.000Z</time>
      </trkpt>
      <trkpt lat="43.16159" lon="0.93317">
        <ele>336</ele>
        <time>2020-11-05T15:21:43.000Z</time>
      </trkpt>
      <trkpt lat="43.16165" lon="0.93302">
        <ele>334</ele>
        <time>2020-11-05T15:21:45.000Z</time>
      </trkpt>
      <trkpt lat="43.1617" lon="0.93287">
        <ele>332</ele>
        <time>2020-11-05T15:21:47.000Z</time>
      </trkpt>
      <trkpt lat="43.16179" lon="0.93265">
        <ele>333</ele>
        <time>2020-11-05T15:21:50.000Z</time>
      </trkpt>
      <trkpt lat="43.16185" lon="0.93239">
        <ele>333</ele>
        <time>2020-11-05T15:21:53.000Z</time>
      </trkpt>
      <trkpt lat="43.1619" lon="0.93224">
        <ele>331</ele>
        <time>2020-11-05T15:21:55.000Z</time>
      </trkpt>
      <trkpt lat="43.16193" lon="0.93209">
        <ele>329</ele>
        <time>2020-11-05T15:21:57.000Z</time>
      </trkpt>
      <trkpt lat="43.16197" lon="0.93194">
        <ele>328</ele>
        <time>2020-11-05T15:21:59.000Z</time>
      </trkpt>
      <trkpt lat="43.16204" lon="0.93173">
        <ele>327</ele>
        <time>2020-11-05T15:22:02.000Z</time>
      </trkpt>
      <trkpt lat="43.16212" lon="0.93152">
        <ele>329</ele>
        <time>2020-11-05T15:22:05.000Z</time>
      </trkpt>
      <trkpt lat="43.16222" lon="0.93132">
        <ele>328</ele>
        <time>2020-11-05T15:22:08.000Z</time>
      </trkpt>
      <trkpt lat="43.16234" lon="0.93117">
        <ele>332</ele>
        <time>2020-11-05T15:22:11.000Z</time>
      </trkpt>
      <trkpt lat="43.16241" lon="0.93109">
        <ele>336</ele>
        <time>2020-11-05T15:22:13.000Z</time>
      </trkpt>
      <trkpt lat="43.16257" lon="0.93102">
        <ele>338</ele>
        <time>2020-11-05T15:22:16.000Z</time>
      </trkpt>
      <trkpt lat="43.16268" lon="0.93098">
        <ele>343</ele>
        <time>2020-11-05T15:22:19.000Z</time>
      </trkpt>
      <trkpt lat="43.16283" lon="0.93097">
        <ele>348</ele>
        <time>2020-11-05T15:22:24.000Z</time>
      </trkpt>
      <trkpt lat="43.16287" lon="0.93081">
        <ele>351</ele>
        <time>2020-11-05T15:22:27.000Z</time>
      </trkpt>
      <trkpt lat="43.16289" lon="0.93055">
        <ele>368</ele>
        <time>2020-11-05T15:22:32.000Z</time>
      </trkpt>
      <trkpt lat="43.16292" lon="0.9304">
        <ele>364</ele>
        <time>2020-11-05T15:22:34.000Z</time>
      </trkpt>
      <trkpt lat="43.16299" lon="0.93025">
        <ele>362</ele>
        <time>2020-11-05T15:22:35.000Z</time>
      </trkpt>
      <trkpt lat="43.16303" lon="0.92994">
        <ele>359</ele>
        <time>2020-11-05T15:22:38.000Z</time>
      </trkpt>
      <trkpt lat="43.16312" lon="0.92967">
        <ele>360</ele>
        <time>2020-11-05T15:22:40.000Z</time>
      </trkpt>
      <trkpt lat="43.16318" lon="0.92942">
        <ele>362</ele>
        <time>2020-11-05T15:22:43.000Z</time>
      </trkpt>
      <trkpt lat="43.16326" lon="0.92913">
        <ele>360</ele>
        <time>2020-11-05T15:22:46.000Z</time>
      </trkpt>
      <trkpt lat="43.16337" lon="0.92904">
        <ele>358</ele>
        <time>2020-11-05T15:22:50.000Z</time>
      </trkpt>
      <trkpt lat="43.16345" lon="0.92887">
        <ele>360</ele>
        <time>2020-11-05T15:22:52.000Z</time>
      </trkpt>
      <trkpt lat="43.16358" lon="0.92851">
        <ele>358</ele>
        <time>2020-11-05T15:22:56.000Z</time>
      </trkpt>
      <trkpt lat="43.16373" lon="0.92822">
        <ele>359</ele>
        <time>2020-11-05T15:22:59.000Z</time>
      </trkpt>
      <trkpt lat="43.16383" lon="0.92802">
        <ele>358</ele>
        <time>2020-11-05T15:23:02.000Z</time>
      </trkpt>
      <trkpt lat="43.16391" lon="0.92789">
        <ele>358</ele>
        <time>2020-11-05T15:23:04.000Z</time>
      </trkpt>
      <trkpt lat="43.16395" lon="0.92772">
        <ele>355</ele>
        <time>2020-11-05T15:23:07.000Z</time>
      </trkpt>
      <trkpt lat="43.16399" lon="0.9276">
        <ele>356</ele>
        <time>2020-11-05T15:23:10.000Z</time>
      </trkpt>
      <trkpt lat="43.16403" lon="0.9274">
        <ele>356</ele>
        <time>2020-11-05T15:23:13.000Z</time>
      </trkpt>
      <trkpt lat="43.16404" lon="0.92714">
        <ele>356</ele>
        <time>2020-11-05T15:23:16.000Z</time>
      </trkpt>
      <trkpt lat="43.16413" lon="0.92701">
        <ele>353</ele>
        <time>2020-11-05T15:23:24.000Z</time>
      </trkpt>
      <trkpt lat="43.16421" lon="0.9269">
        <ele>355</ele>
        <time>2020-11-05T15:23:27.000Z</time>
      </trkpt>
      <trkpt lat="43.16427" lon="0.92667">
        <ele>348</ele>
        <time>2020-11-05T15:23:33.000Z</time>
      </trkpt>
      <trkpt lat="43.16418" lon="0.9266">
        <ele>350</ele>
        <time>2020-11-05T15:23:40.000Z</time>
      </trkpt>
      <trkpt lat="43.16409" lon="0.92653">
        <ele>349</ele>
        <time>2020-11-05T15:23:44.000Z</time>
      </trkpt>
      <trkpt lat="43.164" lon="0.92647">
        <ele>349</ele>
        <time>2020-11-05T15:23:47.000Z</time>
      </trkpt>
      <trkpt lat="43.16386" lon="0.92636">
        <ele>349</ele>
        <time>2020-11-05T15:23:52.000Z</time>
      </trkpt>
      <trkpt lat="43.16376" lon="0.92623">
        <ele>348</ele>
        <time>2020-11-05T15:23:57.000Z</time>
      </trkpt>
      <trkpt lat="43.16371" lon="0.92586">
        <ele>351</ele>
        <time>2020-11-05T15:24:03.000Z</time>
      </trkpt>
      <trkpt lat="43.16366" lon="0.92563">
        <ele>352</ele>
        <time>2020-11-05T15:24:08.000Z</time>
      </trkpt>
      <trkpt lat="43.16363" lon="0.92542">
        <ele>358</ele>
        <time>2020-11-05T15:24:14.000Z</time>
      </trkpt>
      <trkpt lat="43.16363" lon="0.92522">
        <ele>358</ele>
        <time>2020-11-05T15:24:20.000Z</time>
      </trkpt>
      <trkpt lat="43.16367" lon="0.92504">
        <ele>359</ele>
        <time>2020-11-05T15:24:25.000Z</time>
      </trkpt>
      <trkpt lat="43.16369" lon="0.92492">
        <ele>359</ele>
        <time>2020-11-05T15:24:28.000Z</time>
      </trkpt>
      <trkpt lat="43.16371" lon="0.92477">
        <ele>359</ele>
        <time>2020-11-05T15:24:31.000Z</time>
      </trkpt>
      <trkpt lat="43.16373" lon="0.92461">
        <ele>358</ele>
        <time>2020-11-05T15:24:34.000Z</time>
      </trkpt>
      <trkpt lat="43.16375" lon="0.92449">
        <ele>361</ele>
        <time>2020-11-05T15:24:37.000Z</time>
      </trkpt>
      <trkpt lat="43.16382" lon="0.92427">
        <ele>359</ele>
        <time>2020-11-05T15:24:42.000Z</time>
      </trkpt>
      <trkpt lat="43.16387" lon="0.92411">
        <ele>353</ele>
        <time>2020-11-05T15:24:45.000Z</time>
      </trkpt>
      <trkpt lat="43.16395" lon="0.92393">
        <ele>357</ele>
        <time>2020-11-05T15:24:48.000Z</time>
      </trkpt>
      <trkpt lat="43.16407" lon="0.92364">
        <ele>363</ele>
        <time>2020-11-05T15:24:54.000Z</time>
      </trkpt>
      <trkpt lat="43.16413" lon="0.92348">
        <ele>370</ele>
        <time>2020-11-05T15:24:58.000Z</time>
      </trkpt>
      <trkpt lat="43.16428" lon="0.92331">
        <ele>375</ele>
        <time>2020-11-05T15:25:04.000Z</time>
      </trkpt>
      <trkpt lat="43.16436" lon="0.92319">
        <ele>374</ele>
        <time>2020-11-05T15:25:07.000Z</time>
      </trkpt>
      <trkpt lat="43.16443" lon="0.92306">
        <ele>374</ele>
        <time>2020-11-05T15:25:10.000Z</time>
      </trkpt>
      <trkpt lat="43.16449" lon="0.92296">
        <ele>375</ele>
        <time>2020-11-05T15:25:13.000Z</time>
      </trkpt>
      <trkpt lat="43.16462" lon="0.92284">
        <ele>378</ele>
        <time>2020-11-05T15:25:18.000Z</time>
      </trkpt>
      <trkpt lat="43.16468" lon="0.92274">
        <ele>378</ele>
        <time>2020-11-05T15:25:21.000Z</time>
      </trkpt>
      <trkpt lat="43.16475" lon="0.92262">
        <ele>378</ele>
        <time>2020-11-05T15:25:24.000Z</time>
      </trkpt>
      <trkpt lat="43.16481" lon="0.92252">
        <ele>379</ele>
        <time>2020-11-05T15:25:27.000Z</time>
      </trkpt>
      <trkpt lat="43.16489" lon="0.92231">
        <ele>383</ele>
        <time>2020-11-05T15:25:33.000Z</time>
      </trkpt>
      <trkpt lat="43.16495" lon="0.92213">
        <ele>386</ele>
        <time>2020-11-05T15:25:38.000Z</time>
      </trkpt>
      <trkpt lat="43.16501" lon="0.92203">
        <ele>390</ele>
        <time>2020-11-05T15:25:41.000Z</time>
      </trkpt>
      <trkpt lat="43.16507" lon="0.92192">
        <ele>387</ele>
        <time>2020-11-05T15:25:44.000Z</time>
      </trkpt>
      <trkpt lat="43.16517" lon="0.92177">
        <ele>386</ele>
        <time>2020-11-05T15:25:50.000Z</time>
      </trkpt>
      <trkpt lat="43.16522" lon="0.92157">
        <ele>386</ele>
        <time>2020-11-05T15:25:54.000Z</time>
      </trkpt>
      <trkpt lat="43.16528" lon="0.92142">
        <ele>386</ele>
        <time>2020-11-05T15:25:57.000Z</time>
      </trkpt>
      <trkpt lat="43.16534" lon="0.92124">
        <ele>386</ele>
        <time>2020-11-05T15:26:02.000Z</time>
      </trkpt>
      <trkpt lat="43.16539" lon="0.92113">
        <ele>383</ele>
        <time>2020-11-05T15:26:05.000Z</time>
      </trkpt>
      <trkpt lat="43.16542" lon="0.92098">
        <ele>382</ele>
        <time>2020-11-05T15:26:09.000Z</time>
      </trkpt>
      <trkpt lat="43.16542" lon="0.92084">
        <ele>378</ele>
        <time>2020-11-05T15:26:12.000Z</time>
      </trkpt>
      <trkpt lat="43.16545" lon="0.92072">
        <ele>379</ele>
        <time>2020-11-05T15:26:15.000Z</time>
      </trkpt>
      <trkpt lat="43.16553" lon="0.92048">
        <ele>385</ele>
        <time>2020-11-05T15:26:21.000Z</time>
      </trkpt>
      <trkpt lat="43.16558" lon="0.92033">
        <ele>383</ele>
        <time>2020-11-05T15:26:26.000Z</time>
      </trkpt>
      <trkpt lat="43.16563" lon="0.92014">
        <ele>385</ele>
        <time>2020-11-05T15:26:31.000Z</time>
      </trkpt>
      <trkpt lat="43.16571" lon="0.91998">
        <ele>385</ele>
        <time>2020-11-05T15:26:35.000Z</time>
      </trkpt>
      <trkpt lat="43.16574" lon="0.91983">
        <ele>384</ele>
        <time>2020-11-05T15:26:40.000Z</time>
      </trkpt>
      <trkpt lat="43.16578" lon="0.91967">
        <ele>388</ele>
        <time>2020-11-05T15:26:44.000Z</time>
      </trkpt>
      <trkpt lat="43.16585" lon="0.91951">
        <ele>391</ele>
        <time>2020-11-05T15:26:49.000Z</time>
      </trkpt>
      <trkpt lat="43.16589" lon="0.91938">
        <ele>388</ele>
        <time>2020-11-05T15:26:54.000Z</time>
      </trkpt>
      <trkpt lat="43.16593" lon="0.91919">
        <ele>390</ele>
        <time>2020-11-05T15:27:00.000Z</time>
      </trkpt>
      <trkpt lat="43.16597" lon="0.919">
        <ele>394</ele>
        <time>2020-11-05T15:27:06.000Z</time>
      </trkpt>
      <trkpt lat="43.16604" lon="0.91886">
        <ele>395</ele>
        <time>2020-11-05T15:27:12.000Z</time>
      </trkpt>
      <trkpt lat="43.16612" lon="0.91865">
        <ele>399</ele>
        <time>2020-11-05T15:27:18.000Z</time>
      </trkpt>
      <trkpt lat="43.1662" lon="0.91848">
        <ele>403</ele>
        <time>2020-11-05T15:27:23.000Z</time>
      </trkpt>
      <trkpt lat="43.16626" lon="0.91833">
        <ele>404</ele>
        <time>2020-11-05T15:27:28.000Z</time>
      </trkpt>
      <trkpt lat="43.16627" lon="0.91819">
        <ele>413</ele>
        <time>2020-11-05T15:27:34.000Z</time>
      </trkpt>
      <trkpt lat="43.16628" lon="0.91802">
        <ele>414</ele>
        <time>2020-11-05T15:27:39.000Z</time>
      </trkpt>
      <trkpt lat="43.16631" lon="0.9178">
        <ele>412</ele>
        <time>2020-11-05T15:27:45.000Z</time>
      </trkpt>
      <trkpt lat="43.16635" lon="0.91763">
        <ele>414</ele>
        <time>2020-11-05T15:27:48.000Z</time>
      </trkpt>
      <trkpt lat="43.16639" lon="0.91748">
        <ele>415</ele>
        <time>2020-11-05T15:27:51.000Z</time>
      </trkpt>
      <trkpt lat="43.16645" lon="0.91728">
        <ele>417</ele>
        <time>2020-11-05T15:27:56.000Z</time>
      </trkpt>
      <trkpt lat="43.16652" lon="0.91715">
        <ele>418</ele>
        <time>2020-11-05T15:28:00.000Z</time>
      </trkpt>
      <trkpt lat="43.16658" lon="0.91694">
        <ele>423</ele>
        <time>2020-11-05T15:28:05.000Z</time>
      </trkpt>
      <trkpt lat="43.16664" lon="0.91675">
        <ele>427</ele>
        <time>2020-11-05T15:28:10.000Z</time>
      </trkpt>
      <trkpt lat="43.16671" lon="0.91659">
        <ele>427</ele>
        <time>2020-11-05T15:28:16.000Z</time>
      </trkpt>
      <trkpt lat="43.16673" lon="0.9164">
        <ele>432</ele>
        <time>2020-11-05T15:28:22.000Z</time>
      </trkpt>
      <trkpt lat="43.16671" lon="0.91624">
        <ele>433</ele>
        <time>2020-11-05T15:28:29.000Z</time>
      </trkpt>
      <trkpt lat="43.16671" lon="0.91609">
        <ele>431</ele>
        <time>2020-11-05T15:28:35.000Z</time>
      </trkpt>
      <trkpt lat="43.16673" lon="0.91594">
        <ele>436</ele>
        <time>2020-11-05T15:28:40.000Z</time>
      </trkpt>
      <trkpt lat="43.16663" lon="0.91586">
        <ele>448</ele>
        <time>2020-11-05T15:28:49.000Z</time>
      </trkpt>
      <trkpt lat="43.16653" lon="0.91588">
        <ele>458</ele>
        <time>2020-11-05T15:28:54.000Z</time>
      </trkpt>
      <trkpt lat="43.16638" lon="0.91588">
        <ele>458</ele>
        <time>2020-11-05T15:29:00.000Z</time>
      </trkpt>
      <trkpt lat="43.16626" lon="0.91582">
        <ele>457</ele>
        <time>2020-11-05T15:29:03.000Z</time>
      </trkpt>
      <trkpt lat="43.16617" lon="0.91576">
        <ele>460</ele>
        <time>2020-11-05T15:29:06.000Z</time>
      </trkpt>
      <trkpt lat="43.16609" lon="0.91568">
        <ele>458</ele>
        <time>2020-11-05T15:29:09.000Z</time>
      </trkpt>
      <trkpt lat="43.16602" lon="0.91559">
        <ele>459</ele>
        <time>2020-11-05T15:29:13.000Z</time>
      </trkpt>
      <trkpt lat="43.16592" lon="0.91551">
        <ele>465</ele>
        <time>2020-11-05T15:29:20.000Z</time>
      </trkpt>
      <trkpt lat="43.16576" lon="0.91539">
        <ele>471</ele>
        <time>2020-11-05T15:29:26.000Z</time>
      </trkpt>
      <trkpt lat="43.16568" lon="0.9153">
        <ele>468</ele>
        <time>2020-11-05T15:29:29.000Z</time>
      </trkpt>
      <trkpt lat="43.16556" lon="0.91516">
        <ele>468</ele>
        <time>2020-11-05T15:29:33.000Z</time>
      </trkpt>
      <trkpt lat="43.16539" lon="0.91517">
        <ele>465</ele>
        <time>2020-11-05T15:29:35.000Z</time>
      </trkpt>
      <trkpt lat="43.1652" lon="0.91519">
        <ele>462</ele>
        <time>2020-11-05T15:29:38.000Z</time>
      </trkpt>
      <trkpt lat="43.165" lon="0.91515">
        <ele>463</ele>
        <time>2020-11-05T15:29:40.000Z</time>
      </trkpt>
      <trkpt lat="43.16489" lon="0.91515">
        <ele>460</ele>
        <time>2020-11-05T15:29:41.000Z</time>
      </trkpt>
      <trkpt lat="43.1647" lon="0.91507">
        <ele>456</ele>
        <time>2020-11-05T15:29:44.000Z</time>
      </trkpt>
      <trkpt lat="43.16456" lon="0.91504">
        <ele>453</ele>
        <time>2020-11-05T15:29:46.000Z</time>
      </trkpt>
      <trkpt lat="43.16444" lon="0.91504">
        <ele>455</ele>
        <time>2020-11-05T15:29:48.000Z</time>
      </trkpt>
      <trkpt lat="43.16432" lon="0.91495">
        <ele>454</ele>
        <time>2020-11-05T15:29:50.000Z</time>
      </trkpt>
      <trkpt lat="43.16424" lon="0.91487">
        <ele>452</ele>
        <time>2020-11-05T15:29:51.000Z</time>
      </trkpt>
      <trkpt lat="43.16416" lon="0.91481">
        <ele>450</ele>
        <time>2020-11-05T15:29:52.000Z</time>
      </trkpt>
      <trkpt lat="43.16406" lon="0.91471">
        <ele>449</ele>
        <time>2020-11-05T15:29:54.000Z</time>
      </trkpt>
      <trkpt lat="43.16395" lon="0.91461">
        <ele>450</ele>
        <time>2020-11-05T15:29:56.000Z</time>
      </trkpt>
      <trkpt lat="43.16381" lon="0.91443">
        <ele>444</ele>
        <time>2020-11-05T15:29:59.000Z</time>
      </trkpt>
      <trkpt lat="43.16375" lon="0.9142">
        <ele>441</ele>
        <time>2020-11-05T15:30:02.000Z</time>
      </trkpt>
      <trkpt lat="43.16368" lon="0.91405">
        <ele>439</ele>
        <time>2020-11-05T15:30:04.000Z</time>
      </trkpt>
      <trkpt lat="43.16339" lon="0.91396">
        <ele>442</ele>
        <time>2020-11-05T15:30:09.000Z</time>
      </trkpt>
      <trkpt lat="43.16319" lon="0.91394">
        <ele>436</ele>
        <time>2020-11-05T15:30:12.000Z</time>
      </trkpt>
      <trkpt lat="43.16308" lon="0.91388">
        <ele>428</ele>
        <time>2020-11-05T15:30:18.000Z</time>
      </trkpt>
      <trkpt lat="43.16302" lon="0.91378">
        <ele>426</ele>
        <time>2020-11-05T15:30:24.000Z</time>
      </trkpt>
      <trkpt lat="43.16309" lon="0.91369">
        <ele>426</ele>
        <time>2020-11-05T15:30:28.000Z</time>
      </trkpt>
      <trkpt lat="43.16311" lon="0.91355">
        <ele>426</ele>
        <time>2020-11-05T15:30:31.000Z</time>
      </trkpt>
      <trkpt lat="43.16314" lon="0.91339">
        <ele>427</ele>
        <time>2020-11-05T15:30:34.000Z</time>
      </trkpt>
      <trkpt lat="43.16315" lon="0.91325">
        <ele>430</ele>
        <time>2020-11-05T15:30:36.000Z</time>
      </trkpt>
      <trkpt lat="43.16316" lon="0.91305">
        <ele>430</ele>
        <time>2020-11-05T15:30:39.000Z</time>
      </trkpt>
      <trkpt lat="43.16319" lon="0.91286">
        <ele>428</ele>
        <time>2020-11-05T15:30:41.000Z</time>
      </trkpt>
      <trkpt lat="43.16319" lon="0.91272">
        <ele>426</ele>
        <time>2020-11-05T15:30:43.000Z</time>
      </trkpt>
      <trkpt lat="43.16321" lon="0.91255">
        <ele>427</ele>
        <time>2020-11-05T15:30:46.000Z</time>
      </trkpt>
      <trkpt lat="43.16326" lon="0.91238">
        <ele>427</ele>
        <time>2020-11-05T15:30:49.000Z</time>
      </trkpt>
      <trkpt lat="43.16328" lon="0.91221">
        <ele>426</ele>
        <time>2020-11-05T15:30:51.000Z</time>
      </trkpt>
      <trkpt lat="43.16327" lon="0.91207">
        <ele>427</ele>
        <time>2020-11-05T15:30:53.000Z</time>
      </trkpt>
      <trkpt lat="43.16321" lon="0.91187">
        <ele>425</ele>
        <time>2020-11-05T15:30:56.000Z</time>
      </trkpt>
      <trkpt lat="43.16312" lon="0.91157">
        <ele>421</ele>
        <time>2020-11-05T15:31:01.000Z</time>
      </trkpt>
      <trkpt lat="43.16306" lon="0.91139">
        <ele>419</ele>
        <time>2020-11-05T15:31:04.000Z</time>
      </trkpt>
      <trkpt lat="43.16295" lon="0.91117">
        <ele>417</ele>
        <time>2020-11-05T15:31:08.000Z</time>
      </trkpt>
      <trkpt lat="43.16289" lon="0.91101">
        <ele>416</ele>
        <time>2020-11-05T15:31:11.000Z</time>
      </trkpt>
      <trkpt lat="43.16282" lon="0.91087">
        <ele>415</ele>
        <time>2020-11-05T15:31:14.000Z</time>
      </trkpt>
      <trkpt lat="43.16289" lon="0.91076">
        <ele>414</ele>
        <time>2020-11-05T15:31:16.000Z</time>
      </trkpt>
      <trkpt lat="43.16302" lon="0.91051">
        <ele>413</ele>
        <time>2020-11-05T15:31:19.000Z</time>
      </trkpt>
      <trkpt lat="43.16307" lon="0.9101">
        <ele>410</ele>
        <time>2020-11-05T15:31:23.000Z</time>
      </trkpt>
      <trkpt lat="43.16305" lon="0.90988">
        <ele>407</ele>
        <time>2020-11-05T15:31:25.000Z</time>
      </trkpt>
      <trkpt lat="43.16291" lon="0.9096">
        <ele>402</ele>
        <time>2020-11-05T15:31:29.000Z</time>
      </trkpt>
      <trkpt lat="43.16264" lon="0.9097">
        <ele>402</ele>
        <time>2020-11-05T15:31:32.000Z</time>
      </trkpt>
      <trkpt lat="43.16254" lon="0.90972">
        <ele>402</ele>
        <time>2020-11-05T15:31:33.000Z</time>
      </trkpt>
      <trkpt lat="43.16242" lon="0.90971">
        <ele>398</ele>
        <time>2020-11-05T15:31:39.000Z</time>
      </trkpt>
      <trkpt lat="43.16246" lon="0.90958">
        <ele>410</ele>
        <time>2020-11-05T15:31:59.000Z</time>
      </trkpt>
      <trkpt lat="43.1627" lon="0.90929">
        <ele>408</ele>
        <time>2020-11-05T15:32:05.000Z</time>
      </trkpt>
      <trkpt lat="43.16285" lon="0.90919">
        <ele>408</ele>
        <time>2020-11-05T15:32:08.000Z</time>
      </trkpt>
      <trkpt lat="43.16308" lon="0.909">
        <ele>407</ele>
        <time>2020-11-05T15:32:14.000Z</time>
      </trkpt>
      <trkpt lat="43.16323" lon="0.90888">
        <ele>406</ele>
        <time>2020-11-05T15:32:17.000Z</time>
      </trkpt>
      <trkpt lat="43.16338" lon="0.90898">
        <ele>404</ele>
        <time>2020-11-05T15:32:19.000Z</time>
      </trkpt>
      <trkpt lat="43.16352" lon="0.909">
        <ele>403</ele>
        <time>2020-11-05T15:32:21.000Z</time>
      </trkpt>
      <trkpt lat="43.1637" lon="0.90901">
        <ele>401</ele>
        <time>2020-11-05T15:32:23.000Z</time>
      </trkpt>
      <trkpt lat="43.16386" lon="0.90904">
        <ele>401</ele>
        <time>2020-11-05T15:32:25.000Z</time>
      </trkpt>
      <trkpt lat="43.16399" lon="0.90913">
        <ele>399</ele>
        <time>2020-11-05T15:32:28.000Z</time>
      </trkpt>
      <trkpt lat="43.16413" lon="0.9092">
        <ele>395</ele>
        <time>2020-11-05T15:32:31.000Z</time>
      </trkpt>
      <trkpt lat="43.16404" lon="0.90906">
        <ele>392</ele>
        <time>2020-11-05T15:32:34.000Z</time>
      </trkpt>
      <trkpt lat="43.16398" lon="0.90883">
        <ele>392</ele>
        <time>2020-11-05T15:32:38.000Z</time>
      </trkpt>
      <trkpt lat="43.16396" lon="0.90871">
        <ele>387</ele>
        <time>2020-11-05T15:32:41.000Z</time>
      </trkpt>
      <trkpt lat="43.16393" lon="0.90856">
        <ele>384</ele>
        <time>2020-11-05T15:32:44.000Z</time>
      </trkpt>
      <trkpt lat="43.16396" lon="0.9083">
        <ele>382</ele>
        <time>2020-11-05T15:32:49.000Z</time>
      </trkpt>
      <trkpt lat="43.1639" lon="0.90813">
        <ele>378</ele>
        <time>2020-11-05T15:32:55.000Z</time>
      </trkpt>
      <trkpt lat="43.16383" lon="0.90795">
        <ele>377</ele>
        <time>2020-11-05T15:33:02.000Z</time>
      </trkpt>
      <trkpt lat="43.16388" lon="0.90781">
        <ele>380</ele>
        <time>2020-11-05T15:33:06.000Z</time>
      </trkpt>
      <trkpt lat="43.16393" lon="0.90767">
        <ele>382</ele>
        <time>2020-11-05T15:33:11.000Z</time>
      </trkpt>
      <trkpt lat="43.16395" lon="0.90754">
        <ele>387</ele>
        <time>2020-11-05T15:33:16.000Z</time>
      </trkpt>
      <trkpt lat="43.16387" lon="0.9074">
        <ele>396</ele>
        <time>2020-11-05T15:33:24.000Z</time>
      </trkpt>
      <trkpt lat="43.16382" lon="0.90728">
        <ele>394</ele>
        <time>2020-11-05T15:33:29.000Z</time>
      </trkpt>
      <trkpt lat="43.16382" lon="0.90713">
        <ele>395</ele>
        <time>2020-11-05T15:33:34.000Z</time>
      </trkpt>
      <trkpt lat="43.16392" lon="0.90705">
        <ele>396</ele>
        <time>2020-11-05T15:33:37.000Z</time>
      </trkpt>
      <trkpt lat="43.16402" lon="0.90697">
        <ele>398</ele>
        <time>2020-11-05T15:33:40.000Z</time>
      </trkpt>
      <trkpt lat="43.16411" lon="0.90688">
        <ele>398</ele>
        <time>2020-11-05T15:33:43.000Z</time>
      </trkpt>
      <trkpt lat="43.16418" lon="0.90677">
        <ele>405</ele>
        <time>2020-11-05T15:33:47.000Z</time>
      </trkpt>
      <trkpt lat="43.16416" lon="0.90663">
        <ele>402</ele>
        <time>2020-11-05T15:33:50.000Z</time>
      </trkpt>
      <trkpt lat="43.16408" lon="0.90654">
        <ele>403</ele>
        <time>2020-11-05T15:33:53.000Z</time>
      </trkpt>
      <trkpt lat="43.16398" lon="0.90644">
        <ele>404</ele>
        <time>2020-11-05T15:33:57.000Z</time>
      </trkpt>
      <trkpt lat="43.16391" lon="0.90635">
        <ele>403</ele>
        <time>2020-11-05T15:34:00.000Z</time>
      </trkpt>
      <trkpt lat="43.16386" lon="0.90624">
        <ele>402</ele>
        <time>2020-11-05T15:34:03.000Z</time>
      </trkpt>
      <trkpt lat="43.16375" lon="0.90604">
        <ele>402</ele>
        <time>2020-11-05T15:34:08.000Z</time>
      </trkpt>
      <trkpt lat="43.16367" lon="0.90582">
        <ele>403</ele>
        <time>2020-11-05T15:34:13.000Z</time>
      </trkpt>
      <trkpt lat="43.16363" lon="0.90563">
        <ele>404</ele>
        <time>2020-11-05T15:34:17.000Z</time>
      </trkpt>
      <trkpt lat="43.16359" lon="0.90549">
        <ele>405</ele>
        <time>2020-11-05T15:34:20.000Z</time>
      </trkpt>
      <trkpt lat="43.16355" lon="0.90535">
        <ele>407</ele>
        <time>2020-11-05T15:34:23.000Z</time>
      </trkpt>
      <trkpt lat="43.16349" lon="0.9052">
        <ele>406</ele>
        <time>2020-11-05T15:34:27.000Z</time>
      </trkpt>
      <trkpt lat="43.16343" lon="0.90489">
        <ele>407</ele>
        <time>2020-11-05T15:34:32.000Z</time>
      </trkpt>
      <trkpt lat="43.16334" lon="0.90473">
        <ele>409</ele>
        <time>2020-11-05T15:34:35.000Z</time>
      </trkpt>
      <trkpt lat="43.16329" lon="0.90461">
        <ele>411</ele>
        <time>2020-11-05T15:34:37.000Z</time>
      </trkpt>
      <trkpt lat="43.16325" lon="0.90442">
        <ele>411</ele>
        <time>2020-11-05T15:34:39.000Z</time>
      </trkpt>
      <trkpt lat="43.1632" lon="0.90426">
        <ele>410</ele>
        <time>2020-11-05T15:34:41.000Z</time>
      </trkpt>
      <trkpt lat="43.16319" lon="0.90394">
        <ele>411</ele>
        <time>2020-11-05T15:34:44.000Z</time>
      </trkpt>
      <trkpt lat="43.16317" lon="0.90374">
        <ele>411</ele>
        <time>2020-11-05T15:34:46.000Z</time>
      </trkpt>
      <trkpt lat="43.16315" lon="0.90349">
        <ele>402</ele>
        <time>2020-11-05T15:34:49.000Z</time>
      </trkpt>
      <trkpt lat="43.16313" lon="0.90333">
        <ele>405</ele>
        <time>2020-11-05T15:34:51.000Z</time>
      </trkpt>
      <trkpt lat="43.16311" lon="0.90315">
        <ele>407</ele>
        <time>2020-11-05T15:34:53.000Z</time>
      </trkpt>
      <trkpt lat="43.16309" lon="0.90296">
        <ele>406</ele>
        <time>2020-11-05T15:34:55.000Z</time>
      </trkpt>
      <trkpt lat="43.16308" lon="0.90277">
        <ele>403</ele>
        <time>2020-11-05T15:34:57.000Z</time>
      </trkpt>
      <trkpt lat="43.16303" lon="0.90259">
        <ele>403</ele>
        <time>2020-11-05T15:34:59.000Z</time>
      </trkpt>
      <trkpt lat="43.16299" lon="0.90241">
        <ele>403</ele>
        <time>2020-11-05T15:35:01.000Z</time>
      </trkpt>
      <trkpt lat="43.16295" lon="0.90224">
        <ele>405</ele>
        <time>2020-11-05T15:35:03.000Z</time>
      </trkpt>
      <trkpt lat="43.16289" lon="0.90209">
        <ele>407</ele>
        <time>2020-11-05T15:35:05.000Z</time>
      </trkpt>
      <trkpt lat="43.16282" lon="0.90193">
        <ele>406</ele>
        <time>2020-11-05T15:35:07.000Z</time>
      </trkpt>
      <trkpt lat="43.16275" lon="0.90181">
        <ele>408</ele>
        <time>2020-11-05T15:35:09.000Z</time>
      </trkpt>
      <trkpt lat="43.16266" lon="0.90167">
        <ele>408</ele>
        <time>2020-11-05T15:35:11.000Z</time>
      </trkpt>
      <trkpt lat="43.16259" lon="0.90151">
        <ele>409</ele>
        <time>2020-11-05T15:35:13.000Z</time>
      </trkpt>
      <trkpt lat="43.16254" lon="0.90136">
        <ele>412</ele>
        <time>2020-11-05T15:35:15.000Z</time>
      </trkpt>
      <trkpt lat="43.16247" lon="0.90123">
        <ele>414</ele>
        <time>2020-11-05T15:35:17.000Z</time>
      </trkpt>
      <trkpt lat="43.16239" lon="0.90109">
        <ele>398</ele>
        <time>2020-11-05T15:35:19.000Z</time>
      </trkpt>
      <trkpt lat="43.16232" lon="0.90094">
        <ele>405</ele>
        <time>2020-11-05T15:35:21.000Z</time>
      </trkpt>
      <trkpt lat="43.16225" lon="0.90078">
        <ele>409</ele>
        <time>2020-11-05T15:35:23.000Z</time>
      </trkpt>
      <trkpt lat="43.16218" lon="0.90064">
        <ele>410</ele>
        <time>2020-11-05T15:35:25.000Z</time>
      </trkpt>
      <trkpt lat="43.16211" lon="0.90048">
        <ele>411</ele>
        <time>2020-11-05T15:35:27.000Z</time>
      </trkpt>
      <trkpt lat="43.16205" lon="0.90033">
        <ele>411</ele>
        <time>2020-11-05T15:35:29.000Z</time>
      </trkpt>
      <trkpt lat="43.16197" lon="0.90018">
        <ele>412</ele>
        <time>2020-11-05T15:35:31.000Z</time>
      </trkpt>
      <trkpt lat="43.1619" lon="0.90005">
        <ele>411</ele>
        <time>2020-11-05T15:35:33.000Z</time>
      </trkpt>
      <trkpt lat="43.16182" lon="0.8999">
        <ele>410</ele>
        <time>2020-11-05T15:35:35.000Z</time>
      </trkpt>
      <trkpt lat="43.16174" lon="0.89975">
        <ele>410</ele>
        <time>2020-11-05T15:35:37.000Z</time>
      </trkpt>
      <trkpt lat="43.16164" lon="0.89964">
        <ele>410</ele>
        <time>2020-11-05T15:35:39.000Z</time>
      </trkpt>
      <trkpt lat="43.1614" lon="0.89941">
        <ele>410</ele>
        <time>2020-11-05T15:35:43.000Z</time>
      </trkpt>
      <trkpt lat="43.16128" lon="0.89931">
        <ele>408</ele>
        <time>2020-11-05T15:35:45.000Z</time>
      </trkpt>
      <trkpt lat="43.16115" lon="0.89923">
        <ele>406</ele>
        <time>2020-11-05T15:35:47.000Z</time>
      </trkpt>
      <trkpt lat="43.161" lon="0.89917">
        <ele>405</ele>
        <time>2020-11-05T15:35:49.000Z</time>
      </trkpt>
      <trkpt lat="43.16086" lon="0.89912">
        <ele>405</ele>
        <time>2020-11-05T15:35:51.000Z</time>
      </trkpt>
      <trkpt lat="43.16074" lon="0.8991">
        <ele>406</ele>
        <time>2020-11-05T15:35:53.000Z</time>
      </trkpt>
      <trkpt lat="43.16064" lon="0.89903">
        <ele>407</ele>
        <time>2020-11-05T15:35:55.000Z</time>
      </trkpt>
      <trkpt lat="43.16065" lon="0.89885">
        <ele>407</ele>
        <time>2020-11-05T15:35:57.000Z</time>
      </trkpt>
      <trkpt lat="43.16063" lon="0.89869">
        <ele>409</ele>
        <time>2020-11-05T15:35:59.000Z</time>
      </trkpt>
      <trkpt lat="43.1606" lon="0.89853">
        <ele>411</ele>
        <time>2020-11-05T15:36:01.000Z</time>
      </trkpt>
      <trkpt lat="43.16058" lon="0.89837">
        <ele>413</ele>
        <time>2020-11-05T15:36:03.000Z</time>
      </trkpt>
      <trkpt lat="43.16053" lon="0.89822">
        <ele>412</ele>
        <time>2020-11-05T15:36:05.000Z</time>
      </trkpt>
      <trkpt lat="43.16045" lon="0.89802">
        <ele>415</ele>
        <time>2020-11-05T15:36:08.000Z</time>
      </trkpt>
      <trkpt lat="43.16032" lon="0.89775">
        <ele>414</ele>
        <time>2020-11-05T15:36:12.000Z</time>
      </trkpt>
      <trkpt lat="43.16024" lon="0.89763">
        <ele>415</ele>
        <time>2020-11-05T15:36:14.000Z</time>
      </trkpt>
      <trkpt lat="43.16012" lon="0.89746">
        <ele>416</ele>
        <time>2020-11-05T15:36:17.000Z</time>
      </trkpt>
      <trkpt lat="43.16" lon="0.89725">
        <ele>417</ele>
        <time>2020-11-05T15:36:20.000Z</time>
      </trkpt>
      <trkpt lat="43.15988" lon="0.89707">
        <ele>418</ele>
        <time>2020-11-05T15:36:23.000Z</time>
      </trkpt>
      <trkpt lat="43.15977" lon="0.89688">
        <ele>418</ele>
        <time>2020-11-05T15:36:26.000Z</time>
      </trkpt>
      <trkpt lat="43.15969" lon="0.89675">
        <ele>418</ele>
        <time>2020-11-05T15:36:28.000Z</time>
      </trkpt>
      <trkpt lat="43.15955" lon="0.89656">
        <ele>421</ele>
        <time>2020-11-05T15:36:32.000Z</time>
      </trkpt>
      <trkpt lat="43.15947" lon="0.89644">
        <ele>420</ele>
        <time>2020-11-05T15:36:35.000Z</time>
      </trkpt>
      <trkpt lat="43.15936" lon="0.89639">
        <ele>421</ele>
        <time>2020-11-05T15:36:56.000Z</time>
      </trkpt>
      <trkpt lat="43.15926" lon="0.8964">
        <ele>421</ele>
        <time>2020-11-05T15:36:59.000Z</time>
      </trkpt>
      <trkpt lat="43.15914" lon="0.89641">
        <ele>421</ele>
        <time>2020-11-05T15:37:02.000Z</time>
      </trkpt>
      <trkpt lat="43.15902" lon="0.89643">
        <ele>420</ele>
        <time>2020-11-05T15:37:05.000Z</time>
      </trkpt>
      <trkpt lat="43.15884" lon="0.89646">
        <ele>419</ele>
        <time>2020-11-05T15:37:09.000Z</time>
      </trkpt>
      <trkpt lat="43.15872" lon="0.8965">
        <ele>426</ele>
        <time>2020-11-05T15:37:14.000Z</time>
      </trkpt>
      <trkpt lat="43.15867" lon="0.89662">
        <ele>428</ele>
        <time>2020-11-05T15:37:17.000Z</time>
      </trkpt>
      <trkpt lat="43.15869" lon="0.89676">
        <ele>431</ele>
        <time>2020-11-05T15:37:20.000Z</time>
      </trkpt>
      <trkpt lat="43.1587" lon="0.89693">
        <ele>430</ele>
        <time>2020-11-05T15:37:24.000Z</time>
      </trkpt>
      <trkpt lat="43.15862" lon="0.89711">
        <ele>429</ele>
        <time>2020-11-05T15:37:29.000Z</time>
      </trkpt>
      <trkpt lat="43.1585" lon="0.89716">
        <ele>434</ele>
        <time>2020-11-05T15:37:33.000Z</time>
      </trkpt>
      <trkpt lat="43.15836" lon="0.89723">
        <ele>441</ele>
        <time>2020-11-05T15:37:37.000Z</time>
      </trkpt>
      <trkpt lat="43.15827" lon="0.8973">
        <ele>443</ele>
        <time>2020-11-05T15:37:40.000Z</time>
      </trkpt>
      <trkpt lat="43.1582" lon="0.89738">
        <ele>447</ele>
        <time>2020-11-05T15:37:43.000Z</time>
      </trkpt>
      <trkpt lat="43.1581" lon="0.89756">
        <ele>452</ele>
        <time>2020-11-05T15:37:48.000Z</time>
      </trkpt>
      <trkpt lat="43.15806" lon="0.89776">
        <ele>457</ele>
        <time>2020-11-05T15:37:53.000Z</time>
      </trkpt>
      <trkpt lat="43.15795" lon="0.8979">
        <ele>456</ele>
        <time>2020-11-05T15:37:59.000Z</time>
      </trkpt>
      <trkpt lat="43.15787" lon="0.89795">
        <ele>456</ele>
        <time>2020-11-05T15:38:02.000Z</time>
      </trkpt>
      <trkpt lat="43.15779" lon="0.89802">
        <ele>451</ele>
        <time>2020-11-05T15:38:05.000Z</time>
      </trkpt>
      <trkpt lat="43.15769" lon="0.89808">
        <ele>454</ele>
        <time>2020-11-05T15:38:08.000Z</time>
      </trkpt>
      <trkpt lat="43.15762" lon="0.89818">
        <ele>458</ele>
        <time>2020-11-05T15:38:12.000Z</time>
      </trkpt>
      <trkpt lat="43.15752" lon="0.89826">
        <ele>460</ele>
        <time>2020-11-05T15:38:16.000Z</time>
      </trkpt>
      <trkpt lat="43.1574" lon="0.89829">
        <ele>464</ele>
        <time>2020-11-05T15:38:19.000Z</time>
      </trkpt>
      <trkpt lat="43.15725" lon="0.8983">
        <ele>462</ele>
        <time>2020-11-05T15:38:24.000Z</time>
      </trkpt>
      <trkpt lat="43.15715" lon="0.89832">
        <ele>460</ele>
        <time>2020-11-05T15:38:27.000Z</time>
      </trkpt>
      <trkpt lat="43.15705" lon="0.89835">
        <ele>462</ele>
        <time>2020-11-05T15:38:30.000Z</time>
      </trkpt>
      <trkpt lat="43.15695" lon="0.89836">
        <ele>466</ele>
        <time>2020-11-05T15:38:33.000Z</time>
      </trkpt>
      <trkpt lat="43.15686" lon="0.89835">
        <ele>471</ele>
        <time>2020-11-05T15:38:36.000Z</time>
      </trkpt>
      <trkpt lat="43.15675" lon="0.89835">
        <ele>470</ele>
        <time>2020-11-05T15:38:39.000Z</time>
      </trkpt>
      <trkpt lat="43.15661" lon="0.89836">
        <ele>472</ele>
        <time>2020-11-05T15:38:43.000Z</time>
      </trkpt>
      <trkpt lat="43.15649" lon="0.89837">
        <ele>474</ele>
        <time>2020-11-05T15:38:46.000Z</time>
      </trkpt>
      <trkpt lat="43.15638" lon="0.89839">
        <ele>476</ele>
        <time>2020-11-05T15:38:49.000Z</time>
      </trkpt>
      <trkpt lat="43.15625" lon="0.89838">
        <ele>473</ele>
        <time>2020-11-05T15:38:52.000Z</time>
      </trkpt>
      <trkpt lat="43.15615" lon="0.89835">
        <ele>474</ele>
        <time>2020-11-05T15:38:55.000Z</time>
      </trkpt>
      <trkpt lat="43.15605" lon="0.89835">
        <ele>474</ele>
        <time>2020-11-05T15:38:58.000Z</time>
      </trkpt>
      <trkpt lat="43.15595" lon="0.89833">
        <ele>474</ele>
        <time>2020-11-05T15:39:02.000Z</time>
      </trkpt>
      <trkpt lat="43.15586" lon="0.89832">
        <ele>478</ele>
        <time>2020-11-05T15:39:05.000Z</time>
      </trkpt>
      <trkpt lat="43.15576" lon="0.89831">
        <ele>477</ele>
        <time>2020-11-05T15:39:09.000Z</time>
      </trkpt>
      <trkpt lat="43.15564" lon="0.89832">
        <ele>475</ele>
        <time>2020-11-05T15:39:12.000Z</time>
      </trkpt>
      <trkpt lat="43.15546" lon="0.89832">
        <ele>476</ele>
        <time>2020-11-05T15:39:16.000Z</time>
      </trkpt>
      <trkpt lat="43.15535" lon="0.89832">
        <ele>474</ele>
        <time>2020-11-05T15:39:18.000Z</time>
      </trkpt>
      <trkpt lat="43.15522" lon="0.89832">
        <ele>474</ele>
        <time>2020-11-05T15:39:21.000Z</time>
      </trkpt>
      <trkpt lat="43.15507" lon="0.89832">
        <ele>473</ele>
        <time>2020-11-05T15:39:24.000Z</time>
      </trkpt>
      <trkpt lat="43.15494" lon="0.8983">
        <ele>476</ele>
        <time>2020-11-05T15:39:27.000Z</time>
      </trkpt>
      <trkpt lat="43.15484" lon="0.89827">
        <ele>478</ele>
        <time>2020-11-05T15:39:30.000Z</time>
      </trkpt>
      <trkpt lat="43.15474" lon="0.8982">
        <ele>476</ele>
        <time>2020-11-05T15:39:33.000Z</time>
      </trkpt>
      <trkpt lat="43.15465" lon="0.89812">
        <ele>475</ele>
        <time>2020-11-05T15:39:36.000Z</time>
      </trkpt>
      <trkpt lat="43.15451" lon="0.89793">
        <ele>480</ele>
        <time>2020-11-05T15:39:41.000Z</time>
      </trkpt>
      <trkpt lat="43.15445" lon="0.89783">
        <ele>480</ele>
        <time>2020-11-05T15:39:44.000Z</time>
      </trkpt>
      <trkpt lat="43.15431" lon="0.89766">
        <ele>479</ele>
        <time>2020-11-05T15:39:49.000Z</time>
      </trkpt>
      <trkpt lat="43.15424" lon="0.89752">
        <ele>479</ele>
        <time>2020-11-05T15:39:52.000Z</time>
      </trkpt>
      <trkpt lat="43.15419" lon="0.89739">
        <ele>479</ele>
        <time>2020-11-05T15:39:55.000Z</time>
      </trkpt>
      <trkpt lat="43.15411" lon="0.89724">
        <ele>480</ele>
        <time>2020-11-05T15:39:59.000Z</time>
      </trkpt>
      <trkpt lat="43.15403" lon="0.89707">
        <ele>485</ele>
        <time>2020-11-05T15:40:04.000Z</time>
      </trkpt>
      <trkpt lat="43.15396" lon="0.89688">
        <ele>483</ele>
        <time>2020-11-05T15:40:09.000Z</time>
      </trkpt>
      <trkpt lat="43.15387" lon="0.89667">
        <ele>487</ele>
        <time>2020-11-05T15:40:13.000Z</time>
      </trkpt>
      <trkpt lat="43.15385" lon="0.89646">
        <ele>483</ele>
        <time>2020-11-05T15:40:16.000Z</time>
      </trkpt>
      <trkpt lat="43.15383" lon="0.89633">
        <ele>482</ele>
        <time>2020-11-05T15:40:18.000Z</time>
      </trkpt>
      <trkpt lat="43.15381" lon="0.89604">
        <ele>481</ele>
        <time>2020-11-05T15:40:21.000Z</time>
      </trkpt>
      <trkpt lat="43.15383" lon="0.89585">
        <ele>479</ele>
        <time>2020-11-05T15:40:26.000Z</time>
      </trkpt>
      <trkpt lat="43.15378" lon="0.89565">
        <ele>482</ele>
        <time>2020-11-05T15:40:32.000Z</time>
      </trkpt>
      <trkpt lat="43.15365" lon="0.89549">
        <ele>483</ele>
        <time>2020-11-05T15:41:01.000Z</time>
      </trkpt>
      <trkpt lat="43.15356" lon="0.89544">
        <ele>483</ele>
        <time>2020-11-05T15:41:04.000Z</time>
      </trkpt>
      <trkpt lat="43.15342" lon="0.89541">
        <ele>484</ele>
        <time>2020-11-05T15:41:08.000Z</time>
      </trkpt>
      <trkpt lat="43.15328" lon="0.89535">
        <ele>484</ele>
        <time>2020-11-05T15:41:12.000Z</time>
      </trkpt>
      <trkpt lat="43.15318" lon="0.89529">
        <ele>484</ele>
        <time>2020-11-05T15:41:15.000Z</time>
      </trkpt>
      <trkpt lat="43.15309" lon="0.89534">
        <ele>485</ele>
        <time>2020-11-05T15:41:19.000Z</time>
      </trkpt>
      <trkpt lat="43.15291" lon="0.89534">
        <ele>485</ele>
        <time>2020-11-05T15:41:21.000Z</time>
      </trkpt>
      <trkpt lat="43.15266" lon="0.89527">
        <ele>482</ele>
        <time>2020-11-05T15:41:24.000Z</time>
      </trkpt>
      <trkpt lat="43.15239" lon="0.89526">
        <ele>482</ele>
        <time>2020-11-05T15:41:27.000Z</time>
      </trkpt>
      <trkpt lat="43.15223" lon="0.89523">
        <ele>478</ele>
        <time>2020-11-05T15:41:29.000Z</time>
      </trkpt>
      <trkpt lat="43.1521" lon="0.89516">
        <ele>476</ele>
        <time>2020-11-05T15:41:31.000Z</time>
      </trkpt>
      <trkpt lat="43.15198" lon="0.8951">
        <ele>472</ele>
        <time>2020-11-05T15:41:33.000Z</time>
      </trkpt>
      <trkpt lat="43.15195" lon="0.89495">
        <ele>474</ele>
        <time>2020-11-05T15:41:38.000Z</time>
      </trkpt>
      <trkpt lat="43.152" lon="0.89475">
        <ele>477</ele>
        <time>2020-11-05T15:41:41.000Z</time>
      </trkpt>
      <trkpt lat="43.15176" lon="0.89443">
        <ele>470</ele>
        <time>2020-11-05T15:41:46.000Z</time>
      </trkpt>
      <trkpt lat="43.15163" lon="0.89433">
        <ele>467</ele>
        <time>2020-11-05T15:41:48.000Z</time>
      </trkpt>
      <trkpt lat="43.15145" lon="0.89417">
        <ele>465</ele>
        <time>2020-11-05T15:41:51.000Z</time>
      </trkpt>
      <trkpt lat="43.15139" lon="0.89404">
        <ele>465</ele>
        <time>2020-11-05T15:41:53.000Z</time>
      </trkpt>
      <trkpt lat="43.15135" lon="0.89384">
        <ele>465</ele>
        <time>2020-11-05T15:41:56.000Z</time>
      </trkpt>
      <trkpt lat="43.15135" lon="0.89367">
        <ele>463</ele>
        <time>2020-11-05T15:41:59.000Z</time>
      </trkpt>
      <trkpt lat="43.15135" lon="0.89351">
        <ele>462</ele>
        <time>2020-11-05T15:42:02.000Z</time>
      </trkpt>
      <trkpt lat="43.15133" lon="0.89338">
        <ele>460</ele>
        <time>2020-11-05T15:42:05.000Z</time>
      </trkpt>
      <trkpt lat="43.15119" lon="0.89343">
        <ele>466</ele>
        <time>2020-11-05T15:42:14.000Z</time>
      </trkpt>
      <trkpt lat="43.15102" lon="0.89344">
        <ele>470</ele>
        <time>2020-11-05T15:42:20.000Z</time>
      </trkpt>
      <trkpt lat="43.15085" lon="0.89343">
        <ele>475</ele>
        <time>2020-11-05T15:42:26.000Z</time>
      </trkpt>
      <trkpt lat="43.15068" lon="0.8934">
        <ele>473</ele>
        <time>2020-11-05T15:42:29.000Z</time>
      </trkpt>
      <trkpt lat="43.15055" lon="0.8934">
        <ele>473</ele>
        <time>2020-11-05T15:42:30.000Z</time>
      </trkpt>
      <trkpt lat="43.15034" lon="0.8935">
        <ele>470</ele>
        <time>2020-11-05T15:42:34.000Z</time>
      </trkpt>
      <trkpt lat="43.15018" lon="0.89354">
        <ele>468</ele>
        <time>2020-11-05T15:42:36.000Z</time>
      </trkpt>
      <trkpt lat="43.14996" lon="0.89362">
        <ele>465</ele>
        <time>2020-11-05T15:42:39.000Z</time>
      </trkpt>
      <trkpt lat="43.14971" lon="0.89373">
        <ele>464</ele>
        <time>2020-11-05T15:42:42.000Z</time>
      </trkpt>
      <trkpt lat="43.14946" lon="0.89376">
        <ele>462</ele>
        <time>2020-11-05T15:42:45.000Z</time>
      </trkpt>
      <trkpt lat="43.14921" lon="0.89382">
        <ele>459</ele>
        <time>2020-11-05T15:42:48.000Z</time>
      </trkpt>
      <trkpt lat="43.14906" lon="0.8939">
        <ele>459</ele>
        <time>2020-11-05T15:42:50.000Z</time>
      </trkpt>
      <trkpt lat="43.14891" lon="0.89399">
        <ele>456</ele>
        <time>2020-11-05T15:42:52.000Z</time>
      </trkpt>
      <trkpt lat="43.14872" lon="0.89411">
        <ele>452</ele>
        <time>2020-11-05T15:42:55.000Z</time>
      </trkpt>
      <trkpt lat="43.1486" lon="0.89418">
        <ele>451</ele>
        <time>2020-11-05T15:42:58.000Z</time>
      </trkpt>
      <trkpt lat="43.14842" lon="0.89422">
        <ele>450</ele>
        <time>2020-11-05T15:43:02.000Z</time>
      </trkpt>
      <trkpt lat="43.14831" lon="0.89423">
        <ele>449</ele>
        <time>2020-11-05T15:43:04.000Z</time>
      </trkpt>
      <trkpt lat="43.14812" lon="0.89425">
        <ele>448</ele>
        <time>2020-11-05T15:43:07.000Z</time>
      </trkpt>
      <trkpt lat="43.14796" lon="0.89425">
        <ele>447</ele>
        <time>2020-11-05T15:43:09.000Z</time>
      </trkpt>
      <trkpt lat="43.14769" lon="0.89414">
        <ele>445</ele>
        <time>2020-11-05T15:43:12.000Z</time>
      </trkpt>
      <trkpt lat="43.14741" lon="0.89404">
        <ele>441</ele>
        <time>2020-11-05T15:43:15.000Z</time>
      </trkpt>
      <trkpt lat="43.14716" lon="0.894">
        <ele>441</ele>
        <time>2020-11-05T15:43:18.000Z</time>
      </trkpt>
      <trkpt lat="43.14694" lon="0.89408">
        <ele>440</ele>
        <time>2020-11-05T15:43:21.000Z</time>
      </trkpt>
      <trkpt lat="43.14686" lon="0.89432">
        <ele>438</ele>
        <time>2020-11-05T15:43:24.000Z</time>
      </trkpt>
      <trkpt lat="43.14677" lon="0.8945">
        <ele>439</ele>
        <time>2020-11-05T15:43:27.000Z</time>
      </trkpt>
      <trkpt lat="43.14667" lon="0.89451">
        <ele>439</ele>
        <time>2020-11-05T15:43:29.000Z</time>
      </trkpt>
      <trkpt lat="43.14656" lon="0.89451">
        <ele>441</ele>
        <time>2020-11-05T15:43:32.000Z</time>
      </trkpt>
      <trkpt lat="43.14644" lon="0.89452">
        <ele>440</ele>
        <time>2020-11-05T15:43:35.000Z</time>
      </trkpt>
      <trkpt lat="43.14631" lon="0.89454">
        <ele>438</ele>
        <time>2020-11-05T15:43:38.000Z</time>
      </trkpt>
      <trkpt lat="43.14618" lon="0.89455">
        <ele>439</ele>
        <time>2020-11-05T15:43:41.000Z</time>
      </trkpt>
      <trkpt lat="43.14604" lon="0.89454">
        <ele>439</ele>
        <time>2020-11-05T15:43:44.000Z</time>
      </trkpt>
      <trkpt lat="43.14596" lon="0.89461">
        <ele>439</ele>
        <time>2020-11-05T15:43:47.000Z</time>
      </trkpt>
      <trkpt lat="43.14586" lon="0.89463">
        <ele>439</ele>
        <time>2020-11-05T15:43:50.000Z</time>
      </trkpt>
      <trkpt lat="43.14575" lon="0.8947">
        <ele>441</ele>
        <time>2020-11-05T15:43:53.000Z</time>
      </trkpt>
      <trkpt lat="43.14568" lon="0.89481">
        <ele>443</ele>
        <time>2020-11-05T15:43:56.000Z</time>
      </trkpt>
      <trkpt lat="43.14562" lon="0.89498">
        <ele>446</ele>
        <time>2020-11-05T15:44:00.000Z</time>
      </trkpt>
      <trkpt lat="43.14552" lon="0.8951">
        <ele>448</ele>
        <time>2020-11-05T15:44:04.000Z</time>
      </trkpt>
      <trkpt lat="43.14544" lon="0.89522">
        <ele>451</ele>
        <time>2020-11-05T15:44:07.000Z</time>
      </trkpt>
      <trkpt lat="43.14524" lon="0.89544">
        <ele>448</ele>
        <time>2020-11-05T15:44:12.000Z</time>
      </trkpt>
      <trkpt lat="43.14507" lon="0.89564">
        <ele>453</ele>
        <time>2020-11-05T15:44:18.000Z</time>
      </trkpt>
      <trkpt lat="43.14486" lon="0.8958">
        <ele>454</ele>
        <time>2020-11-05T15:44:23.000Z</time>
      </trkpt>
      <trkpt lat="43.14473" lon="0.89575">
        <ele>454</ele>
        <time>2020-11-05T15:44:28.000Z</time>
      </trkpt>
      <trkpt lat="43.1446" lon="0.89571">
        <ele>452</ele>
        <time>2020-11-05T15:44:31.000Z</time>
      </trkpt>
      <trkpt lat="43.14442" lon="0.89564">
        <ele>456</ele>
        <time>2020-11-05T15:44:36.000Z</time>
      </trkpt>
      <trkpt lat="43.14433" lon="0.8956">
        <ele>455</ele>
        <time>2020-11-05T15:44:39.000Z</time>
      </trkpt>
      <trkpt lat="43.14422" lon="0.89555">
        <ele>459</ele>
        <time>2020-11-05T15:44:43.000Z</time>
      </trkpt>
      <trkpt lat="43.14411" lon="0.89552">
        <ele>461</ele>
        <time>2020-11-05T15:44:46.000Z</time>
      </trkpt>
      <trkpt lat="43.14399" lon="0.89549">
        <ele>461</ele>
        <time>2020-11-05T15:44:49.000Z</time>
      </trkpt>
      <trkpt lat="43.14384" lon="0.89542">
        <ele>465</ele>
        <time>2020-11-05T15:44:53.000Z</time>
      </trkpt>
      <trkpt lat="43.14371" lon="0.89542">
        <ele>468</ele>
        <time>2020-11-05T15:44:57.000Z</time>
      </trkpt>
      <trkpt lat="43.14362" lon="0.89557">
        <ele>469</ele>
        <time>2020-11-05T15:45:00.000Z</time>
      </trkpt>
      <trkpt lat="43.14355" lon="0.8958">
        <ele>471</ele>
        <time>2020-11-05T15:45:03.000Z</time>
      </trkpt>
      <trkpt lat="43.14352" lon="0.89596">
        <ele>470</ele>
        <time>2020-11-05T15:45:05.000Z</time>
      </trkpt>
      <trkpt lat="43.14351" lon="0.89611">
        <ele>471</ele>
        <time>2020-11-05T15:45:07.000Z</time>
      </trkpt>
      <trkpt lat="43.14345" lon="0.89634">
        <ele>470</ele>
        <time>2020-11-05T15:45:10.000Z</time>
      </trkpt>
      <trkpt lat="43.14336" lon="0.89656">
        <ele>468</ele>
        <time>2020-11-05T15:45:13.000Z</time>
      </trkpt>
      <trkpt lat="43.14324" lon="0.89678">
        <ele>467</ele>
        <time>2020-11-05T15:45:16.000Z</time>
      </trkpt>
      <trkpt lat="43.14317" lon="0.89694">
        <ele>468</ele>
        <time>2020-11-05T15:45:18.000Z</time>
      </trkpt>
      <trkpt lat="43.14311" lon="0.89712">
        <ele>467</ele>
        <time>2020-11-05T15:45:20.000Z</time>
      </trkpt>
      <trkpt lat="43.14304" lon="0.8973">
        <ele>467</ele>
        <time>2020-11-05T15:45:22.000Z</time>
      </trkpt>
      <trkpt lat="43.14292" lon="0.89751">
        <ele>466</ele>
        <time>2020-11-05T15:45:25.000Z</time>
      </trkpt>
      <trkpt lat="43.14305" lon="0.89772">
        <ele>469</ele>
        <time>2020-11-05T15:45:28.000Z</time>
      </trkpt>
      <trkpt lat="43.14319" lon="0.89781">
        <ele>468</ele>
        <time>2020-11-05T15:45:30.000Z</time>
      </trkpt>
      <trkpt lat="43.1434" lon="0.89801">
        <ele>458</ele>
        <time>2020-11-05T15:45:33.000Z</time>
      </trkpt>
      <trkpt lat="43.14358" lon="0.89801">
        <ele>458</ele>
        <time>2020-11-05T15:45:35.000Z</time>
      </trkpt>
      <trkpt lat="43.14384" lon="0.89783">
        <ele>452</ele>
        <time>2020-11-05T15:45:38.000Z</time>
      </trkpt>
      <trkpt lat="43.14401" lon="0.89772">
        <ele>449</ele>
        <time>2020-11-05T15:45:40.000Z</time>
      </trkpt>
      <trkpt lat="43.14425" lon="0.89754">
        <ele>449</ele>
        <time>2020-11-05T15:45:43.000Z</time>
      </trkpt>
      <trkpt lat="43.14435" lon="0.89746">
        <ele>445</ele>
        <time>2020-11-05T15:45:44.000Z</time>
      </trkpt>
      <trkpt lat="43.14474" lon="0.89723">
        <ele>446</ele>
        <time>2020-11-05T15:45:48.000Z</time>
      </trkpt>
      <trkpt lat="43.14493" lon="0.89709">
        <ele>441</ele>
        <time>2020-11-05T15:45:50.000Z</time>
      </trkpt>
      <trkpt lat="43.14503" lon="0.89704">
        <ele>440</ele>
        <time>2020-11-05T15:45:51.000Z</time>
      </trkpt>
      <trkpt lat="43.14532" lon="0.89682">
        <ele>441</ele>
        <time>2020-11-05T15:45:54.000Z</time>
      </trkpt>
      <trkpt lat="43.14552" lon="0.8967">
        <ele>439</ele>
        <time>2020-11-05T15:45:56.000Z</time>
      </trkpt>
      <trkpt lat="43.14587" lon="0.89655">
        <ele>439</ele>
        <time>2020-11-05T15:45:59.000Z</time>
      </trkpt>
      <trkpt lat="43.14611" lon="0.89661">
        <ele>437</ele>
        <time>2020-11-05T15:46:01.000Z</time>
      </trkpt>
      <trkpt lat="43.14622" lon="0.89664">
        <ele>436</ele>
        <time>2020-11-05T15:46:02.000Z</time>
      </trkpt>
      <trkpt lat="43.14656" lon="0.8967">
        <ele>435</ele>
        <time>2020-11-05T15:46:05.000Z</time>
      </trkpt>
      <trkpt lat="43.14692" lon="0.89673">
        <ele>433</ele>
        <time>2020-11-05T15:46:08.000Z</time>
      </trkpt>
      <trkpt lat="43.14724" lon="0.89677">
        <ele>433</ele>
        <time>2020-11-05T15:46:11.000Z</time>
      </trkpt>
      <trkpt lat="43.14748" lon="0.8968">
        <ele>435</ele>
        <time>2020-11-05T15:46:14.000Z</time>
      </trkpt>
      <trkpt lat="43.14766" lon="0.89684">
        <ele>437</ele>
        <time>2020-11-05T15:46:17.000Z</time>
      </trkpt>
      <trkpt lat="43.14784" lon="0.89687">
        <ele>436</ele>
        <time>2020-11-05T15:46:20.000Z</time>
      </trkpt>
      <trkpt lat="43.14795" lon="0.89688">
        <ele>437</ele>
        <time>2020-11-05T15:46:22.000Z</time>
      </trkpt>
      <trkpt lat="43.14814" lon="0.8969">
        <ele>437</ele>
        <time>2020-11-05T15:46:25.000Z</time>
      </trkpt>
      <trkpt lat="43.14831" lon="0.89693">
        <ele>438</ele>
        <time>2020-11-05T15:46:28.000Z</time>
      </trkpt>
      <trkpt lat="43.14842" lon="0.89693">
        <ele>438</ele>
        <time>2020-11-05T15:46:30.000Z</time>
      </trkpt>
      <trkpt lat="43.14852" lon="0.89694">
        <ele>439</ele>
        <time>2020-11-05T15:46:32.000Z</time>
      </trkpt>
      <trkpt lat="43.14862" lon="0.89695">
        <ele>444</ele>
        <time>2020-11-05T15:46:35.000Z</time>
      </trkpt>
      <trkpt lat="43.14868" lon="0.8971">
        <ele>446</ele>
        <time>2020-11-05T15:46:47.000Z</time>
      </trkpt>
      <trkpt lat="43.14871" lon="0.89736">
        <ele>444</ele>
        <time>2020-11-05T15:46:50.000Z</time>
      </trkpt>
      <trkpt lat="43.14876" lon="0.89761">
        <ele>444</ele>
        <time>2020-11-05T15:46:53.000Z</time>
      </trkpt>
      <trkpt lat="43.1488" lon="0.89785">
        <ele>442</ele>
        <time>2020-11-05T15:46:56.000Z</time>
      </trkpt>
      <trkpt lat="43.14884" lon="0.89802">
        <ele>442</ele>
        <time>2020-11-05T15:46:58.000Z</time>
      </trkpt>
      <trkpt lat="43.14886" lon="0.89817">
        <ele>442</ele>
        <time>2020-11-05T15:47:00.000Z</time>
      </trkpt>
      <trkpt lat="43.14888" lon="0.89834">
        <ele>442</ele>
        <time>2020-11-05T15:47:02.000Z</time>
      </trkpt>
      <trkpt lat="43.14892" lon="0.89864">
        <ele>443</ele>
        <time>2020-11-05T15:47:06.000Z</time>
      </trkpt>
      <trkpt lat="43.14894" lon="0.89879">
        <ele>443</ele>
        <time>2020-11-05T15:47:08.000Z</time>
      </trkpt>
      <trkpt lat="43.14895" lon="0.89901">
        <ele>441</ele>
        <time>2020-11-05T15:47:11.000Z</time>
      </trkpt>
      <trkpt lat="43.14899" lon="0.89922">
        <ele>443</ele>
        <time>2020-11-05T15:47:14.000Z</time>
      </trkpt>
      <trkpt lat="43.14898" lon="0.89943">
        <ele>442</ele>
        <time>2020-11-05T15:47:17.000Z</time>
      </trkpt>
      <trkpt lat="43.14899" lon="0.89964">
        <ele>444</ele>
        <time>2020-11-05T15:47:20.000Z</time>
      </trkpt>
      <trkpt lat="43.14903" lon="0.89989">
        <ele>442</ele>
        <time>2020-11-05T15:47:23.000Z</time>
      </trkpt>
      <trkpt lat="43.14913" lon="0.90022">
        <ele>440</ele>
        <time>2020-11-05T15:47:27.000Z</time>
      </trkpt>
      <trkpt lat="43.14917" lon="0.90037">
        <ele>439</ele>
        <time>2020-11-05T15:47:29.000Z</time>
      </trkpt>
      <trkpt lat="43.14919" lon="0.90057">
        <ele>440</ele>
        <time>2020-11-05T15:47:33.000Z</time>
      </trkpt>
      <trkpt lat="43.14915" lon="0.90082">
        <ele>440</ele>
        <time>2020-11-05T15:47:36.000Z</time>
      </trkpt>
      <trkpt lat="43.1491" lon="0.90109">
        <ele>440</ele>
        <time>2020-11-05T15:47:39.000Z</time>
      </trkpt>
      <trkpt lat="43.14907" lon="0.90126">
        <ele>441</ele>
        <time>2020-11-05T15:47:41.000Z</time>
      </trkpt>
      <trkpt lat="43.14904" lon="0.90146">
        <ele>440</ele>
        <time>2020-11-05T15:47:43.000Z</time>
      </trkpt>
      <trkpt lat="43.14901" lon="0.90166">
        <ele>440</ele>
        <time>2020-11-05T15:47:45.000Z</time>
      </trkpt>
      <trkpt lat="43.14892" lon="0.90196">
        <ele>438</ele>
        <time>2020-11-05T15:47:48.000Z</time>
      </trkpt>
      <trkpt lat="43.14885" lon="0.90229">
        <ele>437</ele>
        <time>2020-11-05T15:47:51.000Z</time>
      </trkpt>
      <trkpt lat="43.1488" lon="0.9025">
        <ele>436</ele>
        <time>2020-11-05T15:47:53.000Z</time>
      </trkpt>
      <trkpt lat="43.14875" lon="0.90273">
        <ele>435</ele>
        <time>2020-11-05T15:47:55.000Z</time>
      </trkpt>
      <trkpt lat="43.14866" lon="0.90313">
        <ele>429</ele>
        <time>2020-11-05T15:47:58.000Z</time>
      </trkpt>
      <trkpt lat="43.14858" lon="0.90354">
        <ele>423</ele>
        <time>2020-11-05T15:48:01.000Z</time>
      </trkpt>
      <trkpt lat="43.1485" lon="0.90387">
        <ele>425</ele>
        <time>2020-11-05T15:48:04.000Z</time>
      </trkpt>
      <trkpt lat="43.1484" lon="0.90415">
        <ele>425</ele>
        <time>2020-11-05T15:48:07.000Z</time>
      </trkpt>
      <trkpt lat="43.1483" lon="0.90434">
        <ele>425</ele>
        <time>2020-11-05T15:48:09.000Z</time>
      </trkpt>
      <trkpt lat="43.14819" lon="0.9046">
        <ele>426</ele>
        <time>2020-11-05T15:48:12.000Z</time>
      </trkpt>
      <trkpt lat="43.14808" lon="0.90483">
        <ele>426</ele>
        <time>2020-11-05T15:48:15.000Z</time>
      </trkpt>
      <trkpt lat="43.14801" lon="0.90507">
        <ele>427</ele>
        <time>2020-11-05T15:48:18.000Z</time>
      </trkpt>
      <trkpt lat="43.148" lon="0.90529">
        <ele>424</ele>
        <time>2020-11-05T15:48:21.000Z</time>
      </trkpt>
      <trkpt lat="43.14792" lon="0.90553">
        <ele>424</ele>
        <time>2020-11-05T15:48:24.000Z</time>
      </trkpt>
      <trkpt lat="43.1479" lon="0.90573">
        <ele>425</ele>
        <time>2020-11-05T15:48:27.000Z</time>
      </trkpt>
      <trkpt lat="43.14784" lon="0.90591">
        <ele>424</ele>
        <time>2020-11-05T15:48:29.000Z</time>
      </trkpt>
      <trkpt lat="43.14769" lon="0.90625">
        <ele>423</ele>
        <time>2020-11-05T15:48:33.000Z</time>
      </trkpt>
      <trkpt lat="43.14762" lon="0.90647">
        <ele>422</ele>
        <time>2020-11-05T15:48:36.000Z</time>
      </trkpt>
      <trkpt lat="43.14758" lon="0.90674">
        <ele>425</ele>
        <time>2020-11-05T15:48:40.000Z</time>
      </trkpt>
      <trkpt lat="43.14759" lon="0.90708">
        <ele>421</ele>
        <time>2020-11-05T15:48:44.000Z</time>
      </trkpt>
      <trkpt lat="43.14758" lon="0.90737">
        <ele>421</ele>
        <time>2020-11-05T15:48:47.000Z</time>
      </trkpt>
      <trkpt lat="43.14763" lon="0.90752">
        <ele>425</ele>
        <time>2020-11-05T15:48:49.000Z</time>
      </trkpt>
      <trkpt lat="43.14766" lon="0.9077">
        <ele>425</ele>
        <time>2020-11-05T15:48:51.000Z</time>
      </trkpt>
      <trkpt lat="43.14774" lon="0.90798">
        <ele>428</ele>
        <time>2020-11-05T15:48:54.000Z</time>
      </trkpt>
      <trkpt lat="43.1478" lon="0.90818">
        <ele>413</ele>
        <time>2020-11-05T15:48:57.000Z</time>
      </trkpt>
      <trkpt lat="43.14785" lon="0.90841">
        <ele>420</ele>
        <time>2020-11-05T15:48:59.000Z</time>
      </trkpt>
      <trkpt lat="43.14789" lon="0.90876">
        <ele>424</ele>
        <time>2020-11-05T15:49:02.000Z</time>
      </trkpt>
      <trkpt lat="43.14784" lon="0.90903">
        <ele>423</ele>
        <time>2020-11-05T15:49:04.000Z</time>
      </trkpt>
      <trkpt lat="43.14777" lon="0.90939">
        <ele>423</ele>
        <time>2020-11-05T15:49:07.000Z</time>
      </trkpt>
      <trkpt lat="43.14769" lon="0.9096">
        <ele>422</ele>
        <time>2020-11-05T15:49:09.000Z</time>
      </trkpt>
      <trkpt lat="43.14758" lon="0.91">
        <ele>421</ele>
        <time>2020-11-05T15:49:12.000Z</time>
      </trkpt>
      <trkpt lat="43.14747" lon="0.9104">
        <ele>420</ele>
        <time>2020-11-05T15:49:15.000Z</time>
      </trkpt>
      <trkpt lat="43.1474" lon="0.91064">
        <ele>423</ele>
        <time>2020-11-05T15:49:17.000Z</time>
      </trkpt>
      <trkpt lat="43.14735" lon="0.91078">
        <ele>422</ele>
        <time>2020-11-05T15:49:18.000Z</time>
      </trkpt>
      <trkpt lat="43.14733" lon="0.9109">
        <ele>423</ele>
        <time>2020-11-05T15:49:19.000Z</time>
      </trkpt>
      <trkpt lat="43.14728" lon="0.91122">
        <ele>423</ele>
        <time>2020-11-05T15:49:21.000Z</time>
      </trkpt>
      <trkpt lat="43.14724" lon="0.91136">
        <ele>422</ele>
        <time>2020-11-05T15:49:22.000Z</time>
      </trkpt>
      <trkpt lat="43.14718" lon="0.91149">
        <ele>420</ele>
        <time>2020-11-05T15:49:23.000Z</time>
      </trkpt>
      <trkpt lat="43.14706" lon="0.91159">
        <ele>419</ele>
        <time>2020-11-05T15:49:24.000Z</time>
      </trkpt>
      <trkpt lat="43.14703" lon="0.91191">
        <ele>416</ele>
        <time>2020-11-05T15:49:26.000Z</time>
      </trkpt>
      <trkpt lat="43.14691" lon="0.91248">
        <ele>410</ele>
        <time>2020-11-05T15:49:29.000Z</time>
      </trkpt>
      <trkpt lat="43.1468" lon="0.91302">
        <ele>404</ele>
        <time>2020-11-05T15:49:32.000Z</time>
      </trkpt>
      <trkpt lat="43.14668" lon="0.9136">
        <ele>393</ele>
        <time>2020-11-05T15:49:35.000Z</time>
      </trkpt>
      <trkpt lat="43.14652" lon="0.91416">
        <ele>389</ele>
        <time>2020-11-05T15:49:38.000Z</time>
      </trkpt>
      <trkpt lat="43.14631" lon="0.91487">
        <ele>383</ele>
        <time>2020-11-05T15:49:42.000Z</time>
      </trkpt>
      <trkpt lat="43.14615" lon="0.91538">
        <ele>379</ele>
        <time>2020-11-05T15:49:45.000Z</time>
      </trkpt>
      <trkpt lat="43.14599" lon="0.91588">
        <ele>399</ele>
        <time>2020-11-05T15:49:48.000Z</time>
      </trkpt>
      <trkpt lat="43.14588" lon="0.9162">
        <ele>383</ele>
        <time>2020-11-05T15:49:50.000Z</time>
      </trkpt>
      <trkpt lat="43.14573" lon="0.91669">
        <ele>376</ele>
        <time>2020-11-05T15:49:53.000Z</time>
      </trkpt>
      <trkpt lat="43.14563" lon="0.91703">
        <ele>374</ele>
        <time>2020-11-05T15:49:55.000Z</time>
      </trkpt>
      <trkpt lat="43.1454" lon="0.91769">
        <ele>367</ele>
        <time>2020-11-05T15:49:59.000Z</time>
      </trkpt>
      <trkpt lat="43.1453" lon="0.91804">
        <ele>366</ele>
        <time>2020-11-05T15:50:01.000Z</time>
      </trkpt>
      <trkpt lat="43.14521" lon="0.91838">
        <ele>364</ele>
        <time>2020-11-05T15:50:03.000Z</time>
      </trkpt>
      <trkpt lat="43.14513" lon="0.91872">
        <ele>364</ele>
        <time>2020-11-05T15:50:05.000Z</time>
      </trkpt>
      <trkpt lat="43.14505" lon="0.91914">
        <ele>367</ele>
        <time>2020-11-05T15:50:08.000Z</time>
      </trkpt>
      <trkpt lat="43.14501" lon="0.91948">
        <ele>367</ele>
        <time>2020-11-05T15:50:11.000Z</time>
      </trkpt>
      <trkpt lat="43.14502" lon="0.91974">
        <ele>369</ele>
        <time>2020-11-05T15:50:14.000Z</time>
      </trkpt>
      <trkpt lat="43.14508" lon="0.91997">
        <ele>368</ele>
        <time>2020-11-05T15:50:17.000Z</time>
      </trkpt>
      <trkpt lat="43.14513" lon="0.9202">
        <ele>366</ele>
        <time>2020-11-05T15:50:20.000Z</time>
      </trkpt>
      <trkpt lat="43.14511" lon="0.92045">
        <ele>361</ele>
        <time>2020-11-05T15:50:23.000Z</time>
      </trkpt>
      <trkpt lat="43.14507" lon="0.92067">
        <ele>360</ele>
        <time>2020-11-05T15:50:26.000Z</time>
      </trkpt>
      <trkpt lat="43.14505" lon="0.92085">
        <ele>360</ele>
        <time>2020-11-05T15:50:28.000Z</time>
      </trkpt>
      <trkpt lat="43.14503" lon="0.92101">
        <ele>360</ele>
        <time>2020-11-05T15:50:30.000Z</time>
      </trkpt>
      <trkpt lat="43.14501" lon="0.92117">
        <ele>360</ele>
        <time>2020-11-05T15:50:32.000Z</time>
      </trkpt>
      <trkpt lat="43.14503" lon="0.92139">
        <ele>363</ele>
        <time>2020-11-05T15:50:35.000Z</time>
      </trkpt>
      <trkpt lat="43.14505" lon="0.92151">
        <ele>365</ele>
        <time>2020-11-05T15:50:37.000Z</time>
      </trkpt>
      <trkpt lat="43.14511" lon="0.92186">
        <ele>366</ele>
        <time>2020-11-05T15:50:42.000Z</time>
      </trkpt>
      <trkpt lat="43.14518" lon="0.92206">
        <ele>366</ele>
        <time>2020-11-05T15:50:45.000Z</time>
      </trkpt>
      <trkpt lat="43.14523" lon="0.92234">
        <ele>367</ele>
        <time>2020-11-05T15:50:49.000Z</time>
      </trkpt>
      <trkpt lat="43.14527" lon="0.92255">
        <ele>377</ele>
        <time>2020-11-05T15:50:51.000Z</time>
      </trkpt>
      <trkpt lat="43.14526" lon="0.92281">
        <ele>368</ele>
        <time>2020-11-05T15:50:54.000Z</time>
      </trkpt>
      <trkpt lat="43.14528" lon="0.92299">
        <ele>366</ele>
        <time>2020-11-05T15:50:57.000Z</time>
      </trkpt>
      <trkpt lat="43.14529" lon="0.92336">
        <ele>364</ele>
        <time>2020-11-05T15:51:01.000Z</time>
      </trkpt>
      <trkpt lat="43.14532" lon="0.92351">
        <ele>365</ele>
        <time>2020-11-05T15:51:03.000Z</time>
      </trkpt>
      <trkpt lat="43.14535" lon="0.92367">
        <ele>366</ele>
        <time>2020-11-05T15:51:05.000Z</time>
      </trkpt>
      <trkpt lat="43.14541" lon="0.92382">
        <ele>368</ele>
        <time>2020-11-05T15:51:07.000Z</time>
      </trkpt>
      <trkpt lat="43.14544" lon="0.92404">
        <ele>369</ele>
        <time>2020-11-05T15:51:10.000Z</time>
      </trkpt>
      <trkpt lat="43.14547" lon="0.92421">
        <ele>367</ele>
        <time>2020-11-05T15:51:12.000Z</time>
      </trkpt>
      <trkpt lat="43.14554" lon="0.92446">
        <ele>366</ele>
        <time>2020-11-05T15:51:15.000Z</time>
      </trkpt>
      <trkpt lat="43.14563" lon="0.92471">
        <ele>367</ele>
        <time>2020-11-05T15:51:18.000Z</time>
      </trkpt>
      <trkpt lat="43.1457" lon="0.92493">
        <ele>367</ele>
        <time>2020-11-05T15:51:21.000Z</time>
      </trkpt>
      <trkpt lat="43.14579" lon="0.92513">
        <ele>367</ele>
        <time>2020-11-05T15:51:24.000Z</time>
      </trkpt>
      <trkpt lat="43.14586" lon="0.92525">
        <ele>367</ele>
        <time>2020-11-05T15:51:26.000Z</time>
      </trkpt>
      <trkpt lat="43.146" lon="0.92543">
        <ele>365</ele>
        <time>2020-11-05T15:51:29.000Z</time>
      </trkpt>
      <trkpt lat="43.14608" lon="0.92562">
        <ele>371</ele>
        <time>2020-11-05T15:51:33.000Z</time>
      </trkpt>
      <trkpt lat="43.14608" lon="0.92574">
        <ele>371</ele>
        <time>2020-11-05T15:51:35.000Z</time>
      </trkpt>
      <trkpt lat="43.14603" lon="0.92599">
        <ele>371</ele>
        <time>2020-11-05T15:51:38.000Z</time>
      </trkpt>
      <trkpt lat="43.14596" lon="0.92617">
        <ele>372</ele>
        <time>2020-11-05T15:51:41.000Z</time>
      </trkpt>
      <trkpt lat="43.14591" lon="0.92636">
        <ele>371</ele>
        <time>2020-11-05T15:51:44.000Z</time>
      </trkpt>
      <trkpt lat="43.14585" lon="0.92658">
        <ele>370</ele>
        <time>2020-11-05T15:51:47.000Z</time>
      </trkpt>
      <trkpt lat="43.14579" lon="0.92675">
        <ele>371</ele>
        <time>2020-11-05T15:51:50.000Z</time>
      </trkpt>
      <trkpt lat="43.1458" lon="0.9269">
        <ele>372</ele>
        <time>2020-11-05T15:51:53.000Z</time>
      </trkpt>
      <trkpt lat="43.14592" lon="0.92703">
        <ele>374</ele>
        <time>2020-11-05T15:51:58.000Z</time>
      </trkpt>
      <trkpt lat="43.146" lon="0.92713">
        <ele>375</ele>
        <time>2020-11-05T15:52:01.000Z</time>
      </trkpt>
      <trkpt lat="43.14608" lon="0.92724">
        <ele>375</ele>
        <time>2020-11-05T15:52:04.000Z</time>
      </trkpt>
      <trkpt lat="43.14617" lon="0.92734">
        <ele>376</ele>
        <time>2020-11-05T15:52:07.000Z</time>
      </trkpt>
      <trkpt lat="43.14629" lon="0.92749">
        <ele>378</ele>
        <time>2020-11-05T15:52:11.000Z</time>
      </trkpt>
      <trkpt lat="43.14644" lon="0.92769">
        <ele>378</ele>
        <time>2020-11-05T15:52:16.000Z</time>
      </trkpt>
      <trkpt lat="43.14652" lon="0.9278">
        <ele>379</ele>
        <time>2020-11-05T15:52:19.000Z</time>
      </trkpt>
      <trkpt lat="43.14662" lon="0.92788">
        <ele>382</ele>
        <time>2020-11-05T15:52:22.000Z</time>
      </trkpt>
      <trkpt lat="43.14675" lon="0.92791">
        <ele>382</ele>
        <time>2020-11-05T15:52:25.000Z</time>
      </trkpt>
      <trkpt lat="43.14687" lon="0.92789">
        <ele>382</ele>
        <time>2020-11-05T15:52:28.000Z</time>
      </trkpt>
      <trkpt lat="43.14703" lon="0.92788">
        <ele>385</ele>
        <time>2020-11-05T15:52:33.000Z</time>
      </trkpt>
      <trkpt lat="43.14715" lon="0.92791">
        <ele>386</ele>
        <time>2020-11-05T15:52:36.000Z</time>
      </trkpt>
      <trkpt lat="43.14726" lon="0.92795">
        <ele>389</ele>
        <time>2020-11-05T15:52:39.000Z</time>
      </trkpt>
      <trkpt lat="43.14738" lon="0.92802">
        <ele>390</ele>
        <time>2020-11-05T15:52:42.000Z</time>
      </trkpt>
      <trkpt lat="43.14753" lon="0.92815">
        <ele>390</ele>
        <time>2020-11-05T15:52:46.000Z</time>
      </trkpt>
      <trkpt lat="43.14767" lon="0.92825">
        <ele>393</ele>
        <time>2020-11-05T15:52:50.000Z</time>
      </trkpt>
      <trkpt lat="43.14787" lon="0.92832">
        <ele>397</ele>
        <time>2020-11-05T15:52:55.000Z</time>
      </trkpt>
      <trkpt lat="43.14799" lon="0.92837">
        <ele>398</ele>
        <time>2020-11-05T15:53:00.000Z</time>
      </trkpt>
      <trkpt lat="43.14801" lon="0.92841">
        <ele>351.6</ele>
      </trkpt>
      <trkpt lat="43.14801" lon="0.9286">
        <ele>354.7</ele>
      </trkpt>
      <trkpt lat="43.14776" lon="0.92987">
        <ele>359.6</ele>
      </trkpt>
      <trkpt lat="43.14777" lon="0.9309">
        <ele>366.2</ele>
      </trkpt>
      <trkpt lat="43.14772" lon="0.93105">
        <ele>365.8</ele>
      </trkpt>
      <trkpt lat="43.14772" lon="0.93172">
        <ele>369.5</ele>
      </trkpt>
      <trkpt lat="43.14778" lon="0.93244">
        <ele>371</ele>
      </trkpt>
      <trkpt lat="43.14778" lon="0.93311">
        <ele>367.6</ele>
      </trkpt>
      <trkpt lat="43.14791" lon="0.93389">
        <ele>366.8</ele>
      </trkpt>
      <trkpt lat="43.14795" lon="0.93451">
        <ele>363.3</ele>
      </trkpt>
      <trkpt lat="43.14815" lon="0.93534">
        <ele>365.8</ele>
      </trkpt>
      <trkpt lat="43.14821" lon="0.9355">
        <ele>366.4</ele>
      </trkpt>
      <trkpt lat="43.14846" lon="0.93592">
        <ele>365.1</ele>
      </trkpt>
      <trkpt lat="43.14861" lon="0.93604">
        <ele>364.9</ele>
      </trkpt>
      <trkpt lat="43.1488" lon="0.93639">
        <ele>362.9</ele>
      </trkpt>
      <trkpt lat="43.14904" lon="0.93667">
        <ele>367.3</ele>
      </trkpt>
      <trkpt lat="43.1491" lon="0.93679">
        <ele>369.6</ele>
      </trkpt>
      <trkpt lat="43.14913" lon="0.93698">
        <ele>371.2</ele>
      </trkpt>
      <trkpt lat="43.14906" lon="0.93808">
        <ele>371.7</ele>
      </trkpt>
      <trkpt lat="43.14908" lon="0.93831">
        <ele>372.2</ele>
      </trkpt>
      <trkpt lat="43.14917" lon="0.93859">
        <ele>375.5</ele>
      </trkpt>
      <trkpt lat="43.14922" lon="0.93883">
        <ele>376.9</ele>
      </trkpt>
      <trkpt lat="43.14956" lon="0.93958">
        <ele>386</ele>
      </trkpt>
      <trkpt lat="43.14988" lon="0.93988">
        <ele>395.7</ele>
      </trkpt>
      <trkpt lat="43.14992" lon="0.93995">
        <ele>396.5</ele>
      </trkpt>
      <trkpt lat="43.14995" lon="0.94013">
        <ele>395.9</ele>
      </trkpt>
      <trkpt lat="43.14996" lon="0.94087">
        <ele>395.7</ele>
      </trkpt>
      <trkpt lat="43.15002" lon="0.94161">
        <ele>399.1</ele>
      </trkpt>
      <trkpt lat="43.15006" lon="0.94186">
        <ele>399.4</ele>
      </trkpt>
      <trkpt lat="43.15013" lon="0.94188">
        <ele>397.7</ele>
      </trkpt>
      <trkpt lat="43.15032" lon="0.9421">
        <ele>395.3</ele>
      </trkpt>
      <trkpt lat="43.15044" lon="0.9421">
        <ele>392.9</ele>
      </trkpt>
      <trkpt lat="43.15084" lon="0.94159">
        <ele>392.8</ele>
      </trkpt>
      <trkpt lat="43.1509" lon="0.94154">
        <ele>392.9</ele>
      </trkpt>
      <trkpt lat="43.1511" lon="0.94156">
        <ele>391.2</ele>
      </trkpt>
      <trkpt lat="43.15161" lon="0.94153">
        <ele>384.8</ele>
      </trkpt>
      <trkpt lat="43.15169" lon="0.94157">
        <ele>383.9</ele>
      </trkpt>
      <trkpt lat="43.15227" lon="0.94242">
        <ele>372.8</ele>
      </trkpt>
      <trkpt lat="43.15242" lon="0.94259">
        <ele>372.1</ele>
      </trkpt>
      <trkpt lat="43.15247" lon="0.94265">
        <ele>371.6</ele>
      </trkpt>
      <trkpt lat="43.15266" lon="0.94323">
        <ele>366.8</ele>
      </trkpt>
      <trkpt lat="43.15268" lon="0.94347">
        <ele>364.8</ele>
      </trkpt>
      <trkpt lat="43.15269" lon="0.9437">
        <ele>362.1</ele>
      </trkpt>
      <trkpt lat="43.15269" lon="0.94393">
        <ele>358.7</ele>
      </trkpt>
      <trkpt lat="43.15273" lon="0.94419">
        <ele>357.2</ele>
      </trkpt>
      <trkpt lat="43.15276" lon="0.94442">
        <ele>357.6</ele>
      </trkpt>
      <trkpt lat="43.15285" lon="0.94463">
        <ele>358.2</ele>
      </trkpt>
      <trkpt lat="43.15299" lon="0.94474">
        <ele>357.6</ele>
      </trkpt>
      <trkpt lat="43.15324" lon="0.94489">
        <ele>354.1</ele>
      </trkpt>
      <trkpt lat="43.15338" lon="0.94502">
        <ele>351.1</ele>
      </trkpt>
      <trkpt lat="43.1535" lon="0.94521">
        <ele>348.9</ele>
      </trkpt>
      <trkpt lat="43.15358" lon="0.94545">
        <ele>347.4</ele>
      </trkpt>
      <trkpt lat="43.15364" lon="0.94565">
        <ele>346.3</ele>
      </trkpt>
      <trkpt lat="43.15372" lon="0.94587">
        <ele>344.6</ele>
      </trkpt>
      <trkpt lat="43.15382" lon="0.9461">
        <ele>342.6</ele>
      </trkpt>
      <trkpt lat="43.15394" lon="0.94624">
        <ele>341.9</ele>
      </trkpt>
      <trkpt lat="43.15409" lon="0.94634">
        <ele>341.9</ele>
      </trkpt>
      <trkpt lat="43.15428" lon="0.94632">
        <ele>340.5</ele>
      </trkpt>
      <trkpt lat="43.15445" lon="0.94632">
        <ele>338.4</ele>
      </trkpt>
      <trkpt lat="43.15457" lon="0.94648">
        <ele>336.5</ele>
      </trkpt>
      <trkpt lat="43.15469" lon="0.94665">
        <ele>333.8</ele>
      </trkpt>
      <trkpt lat="43.15483" lon="0.9468">
        <ele>331.5</ele>
      </trkpt>
      <trkpt lat="43.15496" lon="0.94695">
        <ele>328.9</ele>
      </trkpt>
      <trkpt lat="43.15504" lon="0.94717">
        <ele>328.3</ele>
      </trkpt>
      <trkpt lat="43.15512" lon="0.9474">
        <ele>326.8</ele>
      </trkpt>
      <trkpt lat="43.15518" lon="0.94761">
        <ele>324.9</ele>
      </trkpt>
      <trkpt lat="43.1553" lon="0.94781">
        <ele>321.7</ele>
      </trkpt>
      <trkpt lat="43.15544" lon="0.94795">
        <ele>319.7</ele>
      </trkpt>
      <trkpt lat="43.15575" lon="0.94819">
        <ele>315.3</ele>
      </trkpt>
      <trkpt lat="43.15607" lon="0.94839">
        <ele>311.3</ele>
      </trkpt>
      <trkpt lat="43.1564" lon="0.94854">
        <ele>308.5</ele>
      </trkpt>
      <trkpt lat="43.15719" lon="0.9486">
        <ele>294.2</ele>
      </trkpt>
      <trkpt lat="43.15721" lon="0.94833">
        <ele>292.2</ele>
      </trkpt>
      <trkpt lat="43.15772" lon="0.94627">
        <ele>285.1</ele>
      </trkpt>
      <trkpt lat="43.15777" lon="0.94619">
        <ele>284.9</ele>
      </trkpt>
      <trkpt lat="43.15748" lon="0.94513">
        <ele>285.4</ele>
      </trkpt>
      <trkpt lat="43.1574" lon="0.94488">
        <ele>287.3</ele>
      </trkpt>
      <trkpt lat="43.15725" lon="0.94413">
        <ele>281.9</ele>
      </trkpt>
      <trkpt lat="43.1572" lon="0.9427">
        <ele>283.8</ele>
      </trkpt>
      <trkpt lat="43.1572" lon="0.9421">
        <ele>283.8</ele>
      </trkpt>
      <trkpt lat="43.15724" lon="0.94168">
        <ele>284.7</ele>
      </trkpt>
      <trkpt lat="43.15713" lon="0.9413">
        <ele>288</ele>
      </trkpt>
      <trkpt lat="43.15709" lon="0.94096">
        <ele>289.9</ele>
      </trkpt>
      <trkpt lat="43.15718" lon="0.9404">
        <ele>288.8</ele>
      </trkpt>
      <trkpt lat="43.15758" lon="0.93923">
        <ele>289.4</ele>
      </trkpt>
      <trkpt lat="43.15841" lon="0.93761">
        <ele>288.2</ele>
      </trkpt>
      <trkpt lat="43.15878" lon="0.93597">
        <ele>286.9</ele>
      </trkpt>
      <trkpt lat="43.15906" lon="0.93554">
        <ele>286.7</ele>
      </trkpt>
      <trkpt lat="43.1592" lon="0.9352">
        <ele>287.7</ele>
      </trkpt>
      <trkpt lat="43.15957" lon="0.93384">
        <ele>290.3</ele>
      </trkpt>
      <trkpt lat="43.15981" lon="0.93323">
        <ele>290.5</ele>
      </trkpt>
    </trkseg>
  </trk>
</gpx>